<?xml version="1.0" encoding="UTF-8" standalone="no" ?>
<gpx xmlns="http://www.topografix.com/GPX/1/1" xmlns:xsi="http://www.w3.org/2001/XMLSchema-instance" xsi:schemaLocation="http://www.topografix.com/GPX/1/1 http://www.topografix.com/GPX/1/1/gpx.xsd" version="1.1" creator="VisuGPX - https://www.visugpx.com">
  <metadata>
    <name>Le Dufre</name>
    <desc><![CDATA[Groupe B, randonnée du 15 octobre 2015,
avec Annie et Gail.]]></desc>
  </metadata>
  <trk>
    <name><![CDATA[2015 10 15 : Le Dufre]]></name>
    <trkseg>
      <trkpt lat="44.47337" lon="5.63264">
        <ele>1051.82</ele>
        <time>2015-10-15T07:16:18Z</time>
      </trkpt>
      <trkpt lat="44.47337" lon="5.63264">
        <ele>1051.82</ele>
        <time>2015-10-15T07:16:19Z</time>
      </trkpt>
      <trkpt lat="44.47336" lon="5.63264">
        <ele>1054.22</ele>
        <time>2015-10-15T07:16:37Z</time>
      </trkpt>
      <trkpt lat="44.47335" lon="5.63264">
        <ele>1054.7</ele>
        <time>2015-10-15T07:16:45Z</time>
      </trkpt>
      <trkpt lat="44.4733" lon="5.63262">
        <ele>1056.15</ele>
        <time>2015-10-15T07:16:52Z</time>
      </trkpt>
      <trkpt lat="44.47328" lon="5.6326">
        <ele>1054.7</ele>
        <time>2015-10-15T07:16:54Z</time>
      </trkpt>
      <trkpt lat="44.47321" lon="5.63251">
        <ele>1052.78</ele>
        <time>2015-10-15T07:17:04Z</time>
      </trkpt>
      <trkpt lat="44.47312" lon="5.63236">
        <ele>1053.26</ele>
        <time>2015-10-15T07:17:19Z</time>
      </trkpt>
      <trkpt lat="44.4731" lon="5.63231">
        <ele>1054.22</ele>
        <time>2015-10-15T07:17:24Z</time>
      </trkpt>
      <trkpt lat="44.47305" lon="5.63214">
        <ele>1054.22</ele>
        <time>2015-10-15T07:17:38Z</time>
      </trkpt>
      <trkpt lat="44.47302" lon="5.632">
        <ele>1053.26</ele>
        <time>2015-10-15T07:17:49Z</time>
      </trkpt>
      <trkpt lat="44.47302" lon="5.63195">
        <ele>1054.7</ele>
        <time>2015-10-15T07:17:52Z</time>
      </trkpt>
      <trkpt lat="44.473" lon="5.63182">
        <ele>1054.7</ele>
        <time>2015-10-15T07:18:08Z</time>
      </trkpt>
      <trkpt lat="44.473" lon="5.63174">
        <ele>1054.22</ele>
        <time>2015-10-15T07:18:25Z</time>
      </trkpt>
      <trkpt lat="44.47301" lon="5.63156">
        <ele>1054.7</ele>
        <time>2015-10-15T07:18:37Z</time>
      </trkpt>
      <trkpt lat="44.47304" lon="5.63154">
        <ele>1056.15</ele>
        <time>2015-10-15T07:18:40Z</time>
      </trkpt>
      <trkpt lat="44.47307" lon="5.63141">
        <ele>1056.63</ele>
        <time>2015-10-15T07:18:52Z</time>
      </trkpt>
      <trkpt lat="44.47307" lon="5.63134">
        <ele>1056.15</ele>
        <time>2015-10-15T07:18:57Z</time>
      </trkpt>
      <trkpt lat="44.47308" lon="5.6312">
        <ele>1057.11</ele>
        <time>2015-10-15T07:19:08Z</time>
      </trkpt>
      <trkpt lat="44.47307" lon="5.63113">
        <ele>1056.15</ele>
        <time>2015-10-15T07:19:12Z</time>
      </trkpt>
      <trkpt lat="44.47302" lon="5.63086">
        <ele>1057.11</ele>
        <time>2015-10-15T07:19:29Z</time>
      </trkpt>
      <trkpt lat="44.47298" lon="5.63062">
        <ele>1057.59</ele>
        <time>2015-10-15T07:19:44Z</time>
      </trkpt>
      <trkpt lat="44.47296" lon="5.63039">
        <ele>1056.63</ele>
        <time>2015-10-15T07:19:58Z</time>
      </trkpt>
      <trkpt lat="44.47293" lon="5.63019">
        <ele>1058.07</ele>
        <time>2015-10-15T07:20:10Z</time>
      </trkpt>
      <trkpt lat="44.47286" lon="5.63002">
        <ele>1058.55</ele>
        <time>2015-10-15T07:20:22Z</time>
      </trkpt>
      <trkpt lat="44.47283" lon="5.62996">
        <ele>1058.55</ele>
        <time>2015-10-15T07:20:26Z</time>
      </trkpt>
      <trkpt lat="44.47268" lon="5.62977">
        <ele>1059.03</ele>
        <time>2015-10-15T07:20:43Z</time>
      </trkpt>
      <trkpt lat="44.47257" lon="5.62957">
        <ele>1060.47</ele>
        <time>2015-10-15T07:20:58Z</time>
      </trkpt>
      <trkpt lat="44.47254" lon="5.6293">
        <ele>1061.43</ele>
        <time>2015-10-15T07:21:15Z</time>
      </trkpt>
      <trkpt lat="44.47251" lon="5.62911">
        <ele>1062.39</ele>
        <time>2015-10-15T07:21:27Z</time>
      </trkpt>
      <trkpt lat="44.4725" lon="5.62909">
        <ele>1061.43</ele>
        <time>2015-10-15T07:21:29Z</time>
      </trkpt>
      <trkpt lat="44.47236" lon="5.62891">
        <ele>1062.39</ele>
        <time>2015-10-15T07:21:45Z</time>
      </trkpt>
      <trkpt lat="44.47225" lon="5.62876">
        <ele>1063.36</ele>
        <time>2015-10-15T07:21:58Z</time>
      </trkpt>
      <trkpt lat="44.47214" lon="5.62864">
        <ele>1066.24</ele>
        <time>2015-10-15T07:22:11Z</time>
      </trkpt>
      <trkpt lat="44.47205" lon="5.62849">
        <ele>1067.68</ele>
        <time>2015-10-15T07:22:25Z</time>
      </trkpt>
      <trkpt lat="44.47193" lon="5.62835">
        <ele>1069.12</ele>
        <time>2015-10-15T07:22:42Z</time>
      </trkpt>
      <trkpt lat="44.47193" lon="5.62834">
        <ele>1068.16</ele>
        <time>2015-10-15T07:22:59Z</time>
      </trkpt>
      <trkpt lat="44.47193" lon="5.62829">
        <ele>1068.16</ele>
        <time>2015-10-15T07:23:11Z</time>
      </trkpt>
      <trkpt lat="44.47192" lon="5.62829">
        <ele>1068.64</ele>
        <time>2015-10-15T07:23:35Z</time>
      </trkpt>
      <trkpt lat="44.47192" lon="5.62828">
        <ele>1067.2</ele>
        <time>2015-10-15T07:24:02Z</time>
      </trkpt>
      <trkpt lat="44.47188" lon="5.62822">
        <ele>1066.24</ele>
        <time>2015-10-15T07:24:20Z</time>
      </trkpt>
      <trkpt lat="44.4719" lon="5.62817">
        <ele>1067.68</ele>
        <time>2015-10-15T07:24:34Z</time>
      </trkpt>
      <trkpt lat="44.47188" lon="5.62808">
        <ele>1070.08</ele>
        <time>2015-10-15T07:24:50Z</time>
      </trkpt>
      <trkpt lat="44.47186" lon="5.62798">
        <ele>1072.97</ele>
        <time>2015-10-15T07:25:04Z</time>
      </trkpt>
      <trkpt lat="44.4718" lon="5.62789">
        <ele>1074.41</ele>
        <time>2015-10-15T07:25:22Z</time>
      </trkpt>
      <trkpt lat="44.47173" lon="5.62782">
        <ele>1077.78</ele>
        <time>2015-10-15T07:25:37Z</time>
      </trkpt>
      <trkpt lat="44.47167" lon="5.62772">
        <ele>1080.18</ele>
        <time>2015-10-15T07:25:54Z</time>
      </trkpt>
      <trkpt lat="44.4716" lon="5.62764">
        <ele>1081.14</ele>
        <time>2015-10-15T07:26:10Z</time>
      </trkpt>
      <trkpt lat="44.47154" lon="5.62756">
        <ele>1082.58</ele>
        <time>2015-10-15T07:26:27Z</time>
      </trkpt>
      <trkpt lat="44.47149" lon="5.6275">
        <ele>1085.95</ele>
        <time>2015-10-15T07:26:39Z</time>
      </trkpt>
      <trkpt lat="44.47144" lon="5.62743">
        <ele>1088.35</ele>
        <time>2015-10-15T07:26:54Z</time>
      </trkpt>
      <trkpt lat="44.47138" lon="5.62736">
        <ele>1090.27</ele>
        <time>2015-10-15T07:27:10Z</time>
      </trkpt>
      <trkpt lat="44.47131" lon="5.62727">
        <ele>1092.2</ele>
        <time>2015-10-15T07:27:30Z</time>
      </trkpt>
      <trkpt lat="44.47127" lon="5.62722">
        <ele>1095.08</ele>
        <time>2015-10-15T07:27:40Z</time>
      </trkpt>
      <trkpt lat="44.47118" lon="5.62716">
        <ele>1097.48</ele>
        <time>2015-10-15T07:27:57Z</time>
      </trkpt>
      <trkpt lat="44.4711" lon="5.6271">
        <ele>1097.96</ele>
        <time>2015-10-15T07:28:15Z</time>
      </trkpt>
      <trkpt lat="44.47104" lon="5.62706">
        <ele>1101.33</ele>
        <time>2015-10-15T07:28:27Z</time>
      </trkpt>
      <trkpt lat="44.47094" lon="5.62702">
        <ele>1103.73</ele>
        <time>2015-10-15T07:28:45Z</time>
      </trkpt>
      <trkpt lat="44.47085" lon="5.62698">
        <ele>1107.1</ele>
        <time>2015-10-15T07:29:01Z</time>
      </trkpt>
      <trkpt lat="44.47077" lon="5.62693">
        <ele>1109.98</ele>
        <time>2015-10-15T07:29:19Z</time>
      </trkpt>
      <trkpt lat="44.4707" lon="5.62688">
        <ele>1112.86</ele>
        <time>2015-10-15T07:29:33Z</time>
      </trkpt>
      <trkpt lat="44.47061" lon="5.62678">
        <ele>1115.27</ele>
        <time>2015-10-15T07:29:53Z</time>
      </trkpt>
      <trkpt lat="44.47052" lon="5.62671">
        <ele>1117.19</ele>
        <time>2015-10-15T07:30:09Z</time>
      </trkpt>
      <trkpt lat="44.47046" lon="5.6267">
        <ele>1120.55</ele>
        <time>2015-10-15T07:30:21Z</time>
      </trkpt>
      <trkpt lat="44.47038" lon="5.62666">
        <ele>1122</ele>
        <time>2015-10-15T07:30:39Z</time>
      </trkpt>
      <trkpt lat="44.47032" lon="5.62659">
        <ele>1124.4</ele>
        <time>2015-10-15T07:30:58Z</time>
      </trkpt>
      <trkpt lat="44.47029" lon="5.62651">
        <ele>1126.32</ele>
        <time>2015-10-15T07:31:13Z</time>
      </trkpt>
      <trkpt lat="44.47021" lon="5.62641">
        <ele>1129.21</ele>
        <time>2015-10-15T07:31:31Z</time>
      </trkpt>
      <trkpt lat="44.47014" lon="5.62632">
        <ele>1130.65</ele>
        <time>2015-10-15T07:31:48Z</time>
      </trkpt>
      <trkpt lat="44.47007" lon="5.62628">
        <ele>1134.49</ele>
        <time>2015-10-15T07:32:03Z</time>
      </trkpt>
      <trkpt lat="44.47002" lon="5.6262">
        <ele>1135.94</ele>
        <time>2015-10-15T07:32:19Z</time>
      </trkpt>
      <trkpt lat="44.46996" lon="5.62615">
        <ele>1138.82</ele>
        <time>2015-10-15T07:32:33Z</time>
      </trkpt>
      <trkpt lat="44.46989" lon="5.62606">
        <ele>1141.22</ele>
        <time>2015-10-15T07:32:51Z</time>
      </trkpt>
      <trkpt lat="44.4698" lon="5.62593">
        <ele>1143.14</ele>
        <time>2015-10-15T07:33:10Z</time>
      </trkpt>
      <trkpt lat="44.46967" lon="5.62584">
        <ele>1145.55</ele>
        <time>2015-10-15T07:33:30Z</time>
      </trkpt>
      <trkpt lat="44.46956" lon="5.62581">
        <ele>1147.47</ele>
        <time>2015-10-15T07:33:44Z</time>
      </trkpt>
      <trkpt lat="44.46944" lon="5.6258">
        <ele>1149.39</ele>
        <time>2015-10-15T07:34:00Z</time>
      </trkpt>
      <trkpt lat="44.46932" lon="5.62579">
        <ele>1151.32</ele>
        <time>2015-10-15T07:34:16Z</time>
      </trkpt>
      <trkpt lat="44.46923" lon="5.62577">
        <ele>1152.76</ele>
        <time>2015-10-15T07:34:29Z</time>
      </trkpt>
      <trkpt lat="44.46912" lon="5.62577">
        <ele>1153.24</ele>
        <time>2015-10-15T07:34:44Z</time>
      </trkpt>
      <trkpt lat="44.469" lon="5.62587">
        <ele>1154.68</ele>
        <time>2015-10-15T07:35:00Z</time>
      </trkpt>
      <trkpt lat="44.46892" lon="5.62596">
        <ele>1156.6</ele>
        <time>2015-10-15T07:35:15Z</time>
      </trkpt>
      <trkpt lat="44.46881" lon="5.62599">
        <ele>1159.49</ele>
        <time>2015-10-15T07:35:34Z</time>
      </trkpt>
      <trkpt lat="44.46873" lon="5.62599">
        <ele>1162.85</ele>
        <time>2015-10-15T07:35:50Z</time>
      </trkpt>
      <trkpt lat="44.46869" lon="5.62593">
        <ele>1164.29</ele>
        <time>2015-10-15T07:36:04Z</time>
      </trkpt>
      <trkpt lat="44.46859" lon="5.62583">
        <ele>1166.22</ele>
        <time>2015-10-15T07:36:22Z</time>
      </trkpt>
      <trkpt lat="44.46852" lon="5.62572">
        <ele>1168.62</ele>
        <time>2015-10-15T07:36:39Z</time>
      </trkpt>
      <trkpt lat="44.46851" lon="5.62563">
        <ele>1171.02</ele>
        <time>2015-10-15T07:36:55Z</time>
      </trkpt>
      <trkpt lat="44.46849" lon="5.62552">
        <ele>1173.91</ele>
        <time>2015-10-15T07:37:11Z</time>
      </trkpt>
      <trkpt lat="44.46843" lon="5.6254">
        <ele>1176.79</ele>
        <time>2015-10-15T07:37:26Z</time>
      </trkpt>
      <trkpt lat="44.46837" lon="5.62534">
        <ele>1178.71</ele>
        <time>2015-10-15T07:37:40Z</time>
      </trkpt>
      <trkpt lat="44.46829" lon="5.62525">
        <ele>1181.6</ele>
        <time>2015-10-15T07:37:58Z</time>
      </trkpt>
      <trkpt lat="44.46823" lon="5.62522">
        <ele>1184</ele>
        <time>2015-10-15T07:38:12Z</time>
      </trkpt>
      <trkpt lat="44.46817" lon="5.6252">
        <ele>1186.88</ele>
        <time>2015-10-15T07:38:25Z</time>
      </trkpt>
      <trkpt lat="44.46808" lon="5.62518">
        <ele>1188.33</ele>
        <time>2015-10-15T07:38:42Z</time>
      </trkpt>
      <trkpt lat="44.468" lon="5.62513">
        <ele>1191.21</ele>
        <time>2015-10-15T07:38:56Z</time>
      </trkpt>
      <trkpt lat="44.4679" lon="5.62505">
        <ele>1192.65</ele>
        <time>2015-10-15T07:39:13Z</time>
      </trkpt>
      <trkpt lat="44.46783" lon="5.62493">
        <ele>1195.06</ele>
        <time>2015-10-15T07:39:31Z</time>
      </trkpt>
      <trkpt lat="44.46775" lon="5.6248">
        <ele>1198.42</ele>
        <time>2015-10-15T07:39:48Z</time>
      </trkpt>
      <trkpt lat="44.46768" lon="5.6247">
        <ele>1200.82</ele>
        <time>2015-10-15T07:40:03Z</time>
      </trkpt>
      <trkpt lat="44.4676" lon="5.62457">
        <ele>1202.75</ele>
        <time>2015-10-15T07:40:22Z</time>
      </trkpt>
      <trkpt lat="44.46752" lon="5.62445">
        <ele>1204.19</ele>
        <time>2015-10-15T07:40:37Z</time>
      </trkpt>
      <trkpt lat="44.46741" lon="5.62434">
        <ele>1205.15</ele>
        <time>2015-10-15T07:40:52Z</time>
      </trkpt>
      <trkpt lat="44.46727" lon="5.62421">
        <ele>1207.07</ele>
        <time>2015-10-15T07:41:11Z</time>
      </trkpt>
      <trkpt lat="44.46715" lon="5.6241">
        <ele>1207.55</ele>
        <time>2015-10-15T07:41:27Z</time>
      </trkpt>
      <trkpt lat="44.46706" lon="5.62396">
        <ele>1208.03</ele>
        <time>2015-10-15T07:41:43Z</time>
      </trkpt>
      <trkpt lat="44.467" lon="5.62381">
        <ele>1210.44</ele>
        <time>2015-10-15T07:41:58Z</time>
      </trkpt>
      <trkpt lat="44.46694" lon="5.62366">
        <ele>1211.88</ele>
        <time>2015-10-15T07:42:11Z</time>
      </trkpt>
      <trkpt lat="44.4669" lon="5.62349">
        <ele>1213.32</ele>
        <time>2015-10-15T07:42:26Z</time>
      </trkpt>
      <trkpt lat="44.46684" lon="5.6233">
        <ele>1215.72</ele>
        <time>2015-10-15T07:42:43Z</time>
      </trkpt>
      <trkpt lat="44.46677" lon="5.62314">
        <ele>1218.13</ele>
        <time>2015-10-15T07:43:00Z</time>
      </trkpt>
      <trkpt lat="44.46672" lon="5.623">
        <ele>1220.05</ele>
        <time>2015-10-15T07:43:14Z</time>
      </trkpt>
      <trkpt lat="44.46664" lon="5.62286">
        <ele>1220.53</ele>
        <time>2015-10-15T07:43:30Z</time>
      </trkpt>
      <trkpt lat="44.4666" lon="5.62274">
        <ele>1221.97</ele>
        <time>2015-10-15T07:43:42Z</time>
      </trkpt>
      <trkpt lat="44.4665" lon="5.62262">
        <ele>1222.93</ele>
        <time>2015-10-15T07:43:54Z</time>
      </trkpt>
      <trkpt lat="44.46639" lon="5.62249">
        <ele>1223.9</ele>
        <time>2015-10-15T07:44:10Z</time>
      </trkpt>
      <trkpt lat="44.46629" lon="5.62237">
        <ele>1225.82</ele>
        <time>2015-10-15T07:44:25Z</time>
      </trkpt>
      <trkpt lat="44.46623" lon="5.62222">
        <ele>1227.26</ele>
        <time>2015-10-15T07:44:39Z</time>
      </trkpt>
      <trkpt lat="44.46621" lon="5.62206">
        <ele>1227.74</ele>
        <time>2015-10-15T07:44:53Z</time>
      </trkpt>
      <trkpt lat="44.46618" lon="5.62189">
        <ele>1229.66</ele>
        <time>2015-10-15T07:45:08Z</time>
      </trkpt>
      <trkpt lat="44.46616" lon="5.62169">
        <ele>1232.55</ele>
        <time>2015-10-15T07:45:25Z</time>
      </trkpt>
      <trkpt lat="44.46612" lon="5.62149">
        <ele>1235.43</ele>
        <time>2015-10-15T07:45:42Z</time>
      </trkpt>
      <trkpt lat="44.46608" lon="5.62135">
        <ele>1237.35</ele>
        <time>2015-10-15T07:45:55Z</time>
      </trkpt>
      <trkpt lat="44.46604" lon="5.62122">
        <ele>1240.72</ele>
        <time>2015-10-15T07:46:09Z</time>
      </trkpt>
      <trkpt lat="44.46597" lon="5.62103">
        <ele>1242.64</ele>
        <time>2015-10-15T07:46:26Z</time>
      </trkpt>
      <trkpt lat="44.46593" lon="5.62088">
        <ele>1244.08</ele>
        <time>2015-10-15T07:46:42Z</time>
      </trkpt>
      <trkpt lat="44.46587" lon="5.62075">
        <ele>1245.53</ele>
        <time>2015-10-15T07:46:55Z</time>
      </trkpt>
      <trkpt lat="44.4658" lon="5.62059">
        <ele>1247.45</ele>
        <time>2015-10-15T07:47:10Z</time>
      </trkpt>
      <trkpt lat="44.46571" lon="5.62042">
        <ele>1249.37</ele>
        <time>2015-10-15T07:47:25Z</time>
      </trkpt>
      <trkpt lat="44.46565" lon="5.62029">
        <ele>1250.33</ele>
        <time>2015-10-15T07:47:38Z</time>
      </trkpt>
      <trkpt lat="44.46558" lon="5.62019">
        <ele>1251.77</ele>
        <time>2015-10-15T07:47:49Z</time>
      </trkpt>
      <trkpt lat="44.46554" lon="5.6201">
        <ele>1252.74</ele>
        <time>2015-10-15T07:48:02Z</time>
      </trkpt>
      <trkpt lat="44.46554" lon="5.62013">
        <ele>1254.18</ele>
        <time>2015-10-15T07:48:28Z</time>
      </trkpt>
      <trkpt lat="44.46558" lon="5.62014">
        <ele>1253.22</ele>
        <time>2015-10-15T07:48:48Z</time>
      </trkpt>
      <trkpt lat="44.46556" lon="5.62013">
        <ele>1253.22</ele>
        <time>2015-10-15T07:49:22Z</time>
      </trkpt>
      <trkpt lat="44.46547" lon="5.62004">
        <ele>1253.7</ele>
        <time>2015-10-15T07:49:36Z</time>
      </trkpt>
      <trkpt lat="44.46538" lon="5.61989">
        <ele>1255.62</ele>
        <time>2015-10-15T07:49:52Z</time>
      </trkpt>
      <trkpt lat="44.46532" lon="5.61974">
        <ele>1256.58</ele>
        <time>2015-10-15T07:50:06Z</time>
      </trkpt>
      <trkpt lat="44.46526" lon="5.61955">
        <ele>1258.5</ele>
        <time>2015-10-15T07:50:21Z</time>
      </trkpt>
      <trkpt lat="44.46519" lon="5.61945">
        <ele>1260.91</ele>
        <time>2015-10-15T07:50:34Z</time>
      </trkpt>
      <trkpt lat="44.46516" lon="5.61945">
        <ele>1260.91</ele>
        <time>2015-10-15T07:50:40Z</time>
      </trkpt>
      <trkpt lat="44.46516" lon="5.61947">
        <ele>1261.87</ele>
        <time>2015-10-15T07:50:53Z</time>
      </trkpt>
      <trkpt lat="44.46516" lon="5.61949">
        <ele>1257.54</ele>
        <time>2015-10-15T07:51:13Z</time>
      </trkpt>
      <trkpt lat="44.46516" lon="5.61948">
        <ele>1263.79</ele>
        <time>2015-10-15T07:51:14Z</time>
      </trkpt>
      <trkpt lat="44.46517" lon="5.6195">
        <ele>1260.43</ele>
        <time>2015-10-15T07:51:23Z</time>
      </trkpt>
      <trkpt lat="44.46519" lon="5.61948">
        <ele>1259.94</ele>
        <time>2015-10-15T07:51:43Z</time>
      </trkpt>
      <trkpt lat="44.46516" lon="5.61948">
        <ele>1259.46</ele>
        <time>2015-10-15T07:52:15Z</time>
      </trkpt>
      <trkpt lat="44.46517" lon="5.61949">
        <ele>1259.46</ele>
        <time>2015-10-15T07:52:58Z</time>
      </trkpt>
      <trkpt lat="44.46514" lon="5.61949">
        <ele>1260.91</ele>
        <time>2015-10-15T07:53:34Z</time>
      </trkpt>
      <trkpt lat="44.46519" lon="5.61956">
        <ele>1260.43</ele>
        <time>2015-10-15T07:53:48Z</time>
      </trkpt>
      <trkpt lat="44.4652" lon="5.61959">
        <ele>1259.94</ele>
        <time>2015-10-15T07:54:05Z</time>
      </trkpt>
      <trkpt lat="44.46521" lon="5.61961">
        <ele>1259.94</ele>
        <time>2015-10-15T07:54:35Z</time>
      </trkpt>
      <trkpt lat="44.46519" lon="5.61952">
        <ele>1260.91</ele>
        <time>2015-10-15T07:54:58Z</time>
      </trkpt>
      <trkpt lat="44.46522" lon="5.61948">
        <ele>1260.91</ele>
        <time>2015-10-15T07:55:21Z</time>
      </trkpt>
      <trkpt lat="44.46517" lon="5.61938">
        <ele>1261.87</ele>
        <time>2015-10-15T07:55:34Z</time>
      </trkpt>
      <trkpt lat="44.46519" lon="5.61932">
        <ele>1262.35</ele>
        <time>2015-10-15T07:55:40Z</time>
      </trkpt>
      <trkpt lat="44.4651" lon="5.61919">
        <ele>1264.75</ele>
        <time>2015-10-15T07:55:55Z</time>
      </trkpt>
      <trkpt lat="44.46509" lon="5.61906">
        <ele>1266.67</ele>
        <time>2015-10-15T07:56:10Z</time>
      </trkpt>
      <trkpt lat="44.46508" lon="5.61895">
        <ele>1268.12</ele>
        <time>2015-10-15T07:56:24Z</time>
      </trkpt>
      <trkpt lat="44.46505" lon="5.61884">
        <ele>1269.08</ele>
        <time>2015-10-15T07:56:36Z</time>
      </trkpt>
      <trkpt lat="44.46501" lon="5.61873">
        <ele>1271</ele>
        <time>2015-10-15T07:56:51Z</time>
      </trkpt>
      <trkpt lat="44.46495" lon="5.61863">
        <ele>1272.92</ele>
        <time>2015-10-15T07:57:06Z</time>
      </trkpt>
      <trkpt lat="44.46491" lon="5.61852">
        <ele>1274.85</ele>
        <time>2015-10-15T07:57:25Z</time>
      </trkpt>
      <trkpt lat="44.46489" lon="5.61836">
        <ele>1276.77</ele>
        <time>2015-10-15T07:57:40Z</time>
      </trkpt>
      <trkpt lat="44.46488" lon="5.61832">
        <ele>1277.25</ele>
        <time>2015-10-15T07:57:53Z</time>
      </trkpt>
      <trkpt lat="44.4648" lon="5.61813">
        <ele>1279.17</ele>
        <time>2015-10-15T07:58:12Z</time>
      </trkpt>
      <trkpt lat="44.46473" lon="5.61798">
        <ele>1281.09</ele>
        <time>2015-10-15T07:58:27Z</time>
      </trkpt>
      <trkpt lat="44.4647" lon="5.61783">
        <ele>1283.5</ele>
        <time>2015-10-15T07:58:41Z</time>
      </trkpt>
      <trkpt lat="44.46464" lon="5.61771">
        <ele>1285.42</ele>
        <time>2015-10-15T07:58:57Z</time>
      </trkpt>
      <trkpt lat="44.46458" lon="5.61762">
        <ele>1287.34</ele>
        <time>2015-10-15T07:59:11Z</time>
      </trkpt>
      <trkpt lat="44.46454" lon="5.61752">
        <ele>1289.27</ele>
        <time>2015-10-15T07:59:26Z</time>
      </trkpt>
      <trkpt lat="44.46448" lon="5.61742">
        <ele>1291.19</ele>
        <time>2015-10-15T07:59:41Z</time>
      </trkpt>
      <trkpt lat="44.46441" lon="5.6173">
        <ele>1293.11</ele>
        <time>2015-10-15T07:59:55Z</time>
      </trkpt>
      <trkpt lat="44.46435" lon="5.61716">
        <ele>1295.03</ele>
        <time>2015-10-15T08:00:12Z</time>
      </trkpt>
      <trkpt lat="44.46431" lon="5.61707">
        <ele>1296.48</ele>
        <time>2015-10-15T08:00:26Z</time>
      </trkpt>
      <trkpt lat="44.46427" lon="5.61701">
        <ele>1298.88</ele>
        <time>2015-10-15T08:00:35Z</time>
      </trkpt>
      <trkpt lat="44.46422" lon="5.6169">
        <ele>1299.36</ele>
        <time>2015-10-15T08:00:49Z</time>
      </trkpt>
      <trkpt lat="44.46414" lon="5.61677">
        <ele>1301.76</ele>
        <time>2015-10-15T08:01:05Z</time>
      </trkpt>
      <trkpt lat="44.46408" lon="5.61664">
        <ele>1304.65</ele>
        <time>2015-10-15T08:01:21Z</time>
      </trkpt>
      <trkpt lat="44.46405" lon="5.61652">
        <ele>1306.57</ele>
        <time>2015-10-15T08:01:32Z</time>
      </trkpt>
      <trkpt lat="44.46397" lon="5.6164">
        <ele>1308.97</ele>
        <time>2015-10-15T08:01:47Z</time>
      </trkpt>
      <trkpt lat="44.46392" lon="5.61628">
        <ele>1310.41</ele>
        <time>2015-10-15T08:01:59Z</time>
      </trkpt>
      <trkpt lat="44.46388" lon="5.61614">
        <ele>1311.86</ele>
        <time>2015-10-15T08:02:13Z</time>
      </trkpt>
      <trkpt lat="44.46382" lon="5.61602">
        <ele>1313.3</ele>
        <time>2015-10-15T08:02:26Z</time>
      </trkpt>
      <trkpt lat="44.46375" lon="5.61589">
        <ele>1315.22</ele>
        <time>2015-10-15T08:02:41Z</time>
      </trkpt>
      <trkpt lat="44.46373" lon="5.61575">
        <ele>1316.18</ele>
        <time>2015-10-15T08:02:54Z</time>
      </trkpt>
      <trkpt lat="44.46371" lon="5.61564">
        <ele>1317.62</ele>
        <time>2015-10-15T08:03:08Z</time>
      </trkpt>
      <trkpt lat="44.46367" lon="5.61551">
        <ele>1319.55</ele>
        <time>2015-10-15T08:03:22Z</time>
      </trkpt>
      <trkpt lat="44.46365" lon="5.6154">
        <ele>1321.95</ele>
        <time>2015-10-15T08:03:35Z</time>
      </trkpt>
      <trkpt lat="44.46361" lon="5.61528">
        <ele>1324.83</ele>
        <time>2015-10-15T08:03:51Z</time>
      </trkpt>
      <trkpt lat="44.46357" lon="5.61513">
        <ele>1327.72</ele>
        <time>2015-10-15T08:04:05Z</time>
      </trkpt>
      <trkpt lat="44.46354" lon="5.61505">
        <ele>1329.16</ele>
        <time>2015-10-15T08:04:17Z</time>
      </trkpt>
      <trkpt lat="44.4635" lon="5.6149">
        <ele>1331.56</ele>
        <time>2015-10-15T08:04:33Z</time>
      </trkpt>
      <trkpt lat="44.46351" lon="5.61487">
        <ele>1333.01</ele>
        <time>2015-10-15T08:04:37Z</time>
      </trkpt>
      <trkpt lat="44.46351" lon="5.61465">
        <ele>1334.93</ele>
        <time>2015-10-15T08:04:57Z</time>
      </trkpt>
      <trkpt lat="44.46354" lon="5.61459">
        <ele>1337.33</ele>
        <time>2015-10-15T08:05:14Z</time>
      </trkpt>
      <trkpt lat="44.46349" lon="5.61445">
        <ele>1339.25</ele>
        <time>2015-10-15T08:05:30Z</time>
      </trkpt>
      <trkpt lat="44.46349" lon="5.61441">
        <ele>1339.73</ele>
        <time>2015-10-15T08:05:34Z</time>
      </trkpt>
      <trkpt lat="44.46347" lon="5.61426">
        <ele>1340.22</ele>
        <time>2015-10-15T08:05:47Z</time>
      </trkpt>
      <trkpt lat="44.46337" lon="5.6141">
        <ele>1342.62</ele>
        <time>2015-10-15T08:06:03Z</time>
      </trkpt>
      <trkpt lat="44.46328" lon="5.61392">
        <ele>1344.54</ele>
        <time>2015-10-15T08:06:19Z</time>
      </trkpt>
      <trkpt lat="44.46317" lon="5.61377">
        <ele>1346.94</ele>
        <time>2015-10-15T08:06:37Z</time>
      </trkpt>
      <trkpt lat="44.46308" lon="5.6137">
        <ele>1348.39</ele>
        <time>2015-10-15T08:06:50Z</time>
      </trkpt>
      <trkpt lat="44.46301" lon="5.61359">
        <ele>1349.83</ele>
        <time>2015-10-15T08:07:08Z</time>
      </trkpt>
      <trkpt lat="44.46296" lon="5.61356">
        <ele>1351.75</ele>
        <time>2015-10-15T08:07:30Z</time>
      </trkpt>
      <trkpt lat="44.46287" lon="5.61347">
        <ele>1355.6</ele>
        <time>2015-10-15T08:07:46Z</time>
      </trkpt>
      <trkpt lat="44.46275" lon="5.61359">
        <ele>1356.08</ele>
        <time>2015-10-15T08:08:01Z</time>
      </trkpt>
      <trkpt lat="44.46274" lon="5.61358">
        <ele>1356.56</ele>
        <time>2015-10-15T08:08:18Z</time>
      </trkpt>
      <trkpt lat="44.4629" lon="5.61372">
        <ele>1356.08</ele>
        <time>2015-10-15T08:08:42Z</time>
      </trkpt>
      <trkpt lat="44.463" lon="5.61375">
        <ele>1357.04</ele>
        <time>2015-10-15T08:09:10Z</time>
      </trkpt>
      <trkpt lat="44.46296" lon="5.61375">
        <ele>1358</ele>
        <time>2015-10-15T08:09:33Z</time>
      </trkpt>
      <trkpt lat="44.46296" lon="5.61364">
        <ele>1358.96</ele>
        <time>2015-10-15T08:09:47Z</time>
      </trkpt>
      <trkpt lat="44.46296" lon="5.61361">
        <ele>1359.92</ele>
        <time>2015-10-15T08:10:05Z</time>
      </trkpt>
      <trkpt lat="44.463" lon="5.61359">
        <ele>1360.4</ele>
        <time>2015-10-15T08:10:13Z</time>
      </trkpt>
      <trkpt lat="44.46296" lon="5.6136">
        <ele>1359.92</ele>
        <time>2015-10-15T08:10:19Z</time>
      </trkpt>
      <trkpt lat="44.46311" lon="5.61342">
        <ele>1360.88</ele>
        <time>2015-10-15T08:10:36Z</time>
      </trkpt>
      <trkpt lat="44.46288" lon="5.6133">
        <ele>1359.92</ele>
        <time>2015-10-15T08:10:52Z</time>
      </trkpt>
      <trkpt lat="44.46275" lon="5.61335">
        <ele>1358.96</ele>
        <time>2015-10-15T08:11:11Z</time>
      </trkpt>
      <trkpt lat="44.4628" lon="5.61361">
        <ele>1358.96</ele>
        <time>2015-10-15T08:11:28Z</time>
      </trkpt>
      <trkpt lat="44.4628" lon="5.61356">
        <ele>1358</ele>
        <time>2015-10-15T08:11:50Z</time>
      </trkpt>
      <trkpt lat="44.4628" lon="5.61355">
        <ele>1359.44</ele>
        <time>2015-10-15T08:11:52Z</time>
      </trkpt>
      <trkpt lat="44.4628" lon="5.61356">
        <ele>1358.96</ele>
        <time>2015-10-15T08:11:54Z</time>
      </trkpt>
      <trkpt lat="44.46272" lon="5.61359">
        <ele>1358.48</ele>
        <time>2015-10-15T08:12:23Z</time>
      </trkpt>
      <trkpt lat="44.46279" lon="5.61349">
        <ele>1358</ele>
        <time>2015-10-15T08:12:46Z</time>
      </trkpt>
      <trkpt lat="44.46284" lon="5.61354">
        <ele>1357.04</ele>
        <time>2015-10-15T08:13:08Z</time>
      </trkpt>
      <trkpt lat="44.46284" lon="5.61355">
        <ele>1360.4</ele>
        <time>2015-10-15T08:13:12Z</time>
      </trkpt>
      <trkpt lat="44.46284" lon="5.61355">
        <ele>1359.92</ele>
        <time>2015-10-15T08:13:13Z</time>
      </trkpt>
      <trkpt lat="44.46285" lon="5.61356">
        <ele>1358.48</ele>
        <time>2015-10-15T08:13:15Z</time>
      </trkpt>
      <trkpt lat="44.46286" lon="5.61358">
        <ele>1361.84</ele>
        <time>2015-10-15T08:13:19Z</time>
      </trkpt>
      <trkpt lat="44.46286" lon="5.61358">
        <ele>1356.08</ele>
        <time>2015-10-15T08:13:20Z</time>
      </trkpt>
      <trkpt lat="44.46286" lon="5.61357">
        <ele>1354.15</ele>
        <time>2015-10-15T08:13:21Z</time>
      </trkpt>
      <trkpt lat="44.46286" lon="5.61357">
        <ele>1358</ele>
        <time>2015-10-15T08:13:22Z</time>
      </trkpt>
      <trkpt lat="44.46286" lon="5.61356">
        <ele>1362.81</ele>
        <time>2015-10-15T08:13:24Z</time>
      </trkpt>
      <trkpt lat="44.46286" lon="5.61355">
        <ele>1358</ele>
        <time>2015-10-15T08:13:25Z</time>
      </trkpt>
      <trkpt lat="44.46286" lon="5.61354">
        <ele>1358.96</ele>
        <time>2015-10-15T08:13:27Z</time>
      </trkpt>
      <trkpt lat="44.46281" lon="5.61348">
        <ele>1358.48</ele>
        <time>2015-10-15T08:14:04Z</time>
      </trkpt>
      <trkpt lat="44.46279" lon="5.6136">
        <ele>1358</ele>
        <time>2015-10-15T08:14:20Z</time>
      </trkpt>
      <trkpt lat="44.46279" lon="5.61354">
        <ele>1358</ele>
        <time>2015-10-15T08:14:43Z</time>
      </trkpt>
      <trkpt lat="44.46279" lon="5.61338">
        <ele>1358</ele>
        <time>2015-10-15T08:15:11Z</time>
      </trkpt>
      <trkpt lat="44.46284" lon="5.61331">
        <ele>1358</ele>
        <time>2015-10-15T08:15:50Z</time>
      </trkpt>
      <trkpt lat="44.46277" lon="5.61336">
        <ele>1358</ele>
        <time>2015-10-15T08:16:23Z</time>
      </trkpt>
      <trkpt lat="44.46286" lon="5.61345">
        <ele>1358.96</ele>
        <time>2015-10-15T08:16:47Z</time>
      </trkpt>
      <trkpt lat="44.46292" lon="5.6135">
        <ele>1358.96</ele>
        <time>2015-10-15T08:17:01Z</time>
      </trkpt>
      <trkpt lat="44.46298" lon="5.61342">
        <ele>1360.88</ele>
        <time>2015-10-15T08:17:16Z</time>
      </trkpt>
      <trkpt lat="44.46309" lon="5.61331">
        <ele>1362.33</ele>
        <time>2015-10-15T08:17:31Z</time>
      </trkpt>
      <trkpt lat="44.46318" lon="5.61326">
        <ele>1363.29</ele>
        <time>2015-10-15T08:17:47Z</time>
      </trkpt>
      <trkpt lat="44.46331" lon="5.61321">
        <ele>1365.21</ele>
        <time>2015-10-15T08:18:04Z</time>
      </trkpt>
      <trkpt lat="44.46337" lon="5.61319">
        <ele>1365.21</ele>
        <time>2015-10-15T08:18:19Z</time>
      </trkpt>
      <trkpt lat="44.46345" lon="5.61316">
        <ele>1366.17</ele>
        <time>2015-10-15T08:18:29Z</time>
      </trkpt>
      <trkpt lat="44.46359" lon="5.61315">
        <ele>1367.61</ele>
        <time>2015-10-15T08:18:44Z</time>
      </trkpt>
      <trkpt lat="44.46373" lon="5.61316">
        <ele>1369.05</ele>
        <time>2015-10-15T08:19:00Z</time>
      </trkpt>
      <trkpt lat="44.46387" lon="5.61308">
        <ele>1370.98</ele>
        <time>2015-10-15T08:19:19Z</time>
      </trkpt>
      <trkpt lat="44.46403" lon="5.61302">
        <ele>1372.42</ele>
        <time>2015-10-15T08:19:35Z</time>
      </trkpt>
      <trkpt lat="44.46408" lon="5.61302">
        <ele>1372.9</ele>
        <time>2015-10-15T08:19:40Z</time>
      </trkpt>
      <trkpt lat="44.46422" lon="5.61298">
        <ele>1374.34</ele>
        <time>2015-10-15T08:19:56Z</time>
      </trkpt>
      <trkpt lat="44.4643" lon="5.61299">
        <ele>1375.3</ele>
        <time>2015-10-15T08:20:04Z</time>
      </trkpt>
      <trkpt lat="44.46441" lon="5.61311">
        <ele>1376.75</ele>
        <time>2015-10-15T08:20:19Z</time>
      </trkpt>
      <trkpt lat="44.4644" lon="5.61315">
        <ele>1377.23</ele>
        <time>2015-10-15T08:20:26Z</time>
      </trkpt>
      <trkpt lat="44.46448" lon="5.61327">
        <ele>1379.15</ele>
        <time>2015-10-15T08:20:40Z</time>
      </trkpt>
      <trkpt lat="44.46457" lon="5.61336">
        <ele>1380.11</ele>
        <time>2015-10-15T08:20:52Z</time>
      </trkpt>
      <trkpt lat="44.46469" lon="5.61345">
        <ele>1381.07</ele>
        <time>2015-10-15T08:21:06Z</time>
      </trkpt>
      <trkpt lat="44.46482" lon="5.6135">
        <ele>1382.51</ele>
        <time>2015-10-15T08:21:20Z</time>
      </trkpt>
      <trkpt lat="44.46486" lon="5.61351">
        <ele>1382.51</ele>
        <time>2015-10-15T08:21:24Z</time>
      </trkpt>
      <trkpt lat="44.46501" lon="5.61353">
        <ele>1383.96</ele>
        <time>2015-10-15T08:21:39Z</time>
      </trkpt>
      <trkpt lat="44.46509" lon="5.61357">
        <ele>1384.92</ele>
        <time>2015-10-15T08:21:49Z</time>
      </trkpt>
      <trkpt lat="44.4652" lon="5.61366">
        <ele>1386.36</ele>
        <time>2015-10-15T08:22:04Z</time>
      </trkpt>
      <trkpt lat="44.4653" lon="5.61379">
        <ele>1387.32</ele>
        <time>2015-10-15T08:22:18Z</time>
      </trkpt>
      <trkpt lat="44.46531" lon="5.61381">
        <ele>1387.32</ele>
        <time>2015-10-15T08:22:20Z</time>
      </trkpt>
      <trkpt lat="44.46538" lon="5.61399">
        <ele>1388.28</ele>
        <time>2015-10-15T08:22:35Z</time>
      </trkpt>
      <trkpt lat="44.46542" lon="5.61406">
        <ele>1388.76</ele>
        <time>2015-10-15T08:22:41Z</time>
      </trkpt>
      <trkpt lat="44.46548" lon="5.61413">
        <ele>1389.24</ele>
        <time>2015-10-15T08:22:48Z</time>
      </trkpt>
      <trkpt lat="44.46553" lon="5.61414">
        <ele>1389.24</ele>
        <time>2015-10-15T08:22:53Z</time>
      </trkpt>
      <trkpt lat="44.46559" lon="5.6141">
        <ele>1389.72</ele>
        <time>2015-10-15T08:22:58Z</time>
      </trkpt>
      <trkpt lat="44.46561" lon="5.61402">
        <ele>1390.2</ele>
        <time>2015-10-15T08:23:09Z</time>
      </trkpt>
      <trkpt lat="44.46561" lon="5.61399">
        <ele>1390.2</ele>
        <time>2015-10-15T08:23:11Z</time>
      </trkpt>
      <trkpt lat="44.46551" lon="5.61383">
        <ele>1391.65</ele>
        <time>2015-10-15T08:23:26Z</time>
      </trkpt>
      <trkpt lat="44.46547" lon="5.61372">
        <ele>1393.09</ele>
        <time>2015-10-15T08:23:37Z</time>
      </trkpt>
      <trkpt lat="44.4654" lon="5.61354">
        <ele>1395.01</ele>
        <time>2015-10-15T08:23:51Z</time>
      </trkpt>
      <trkpt lat="44.46533" lon="5.61338">
        <ele>1396.45</ele>
        <time>2015-10-15T08:24:05Z</time>
      </trkpt>
      <trkpt lat="44.46521" lon="5.61325">
        <ele>1397.89</ele>
        <time>2015-10-15T08:24:20Z</time>
      </trkpt>
      <trkpt lat="44.46514" lon="5.6132">
        <ele>1398.37</ele>
        <time>2015-10-15T08:24:25Z</time>
      </trkpt>
      <trkpt lat="44.46496" lon="5.61311">
        <ele>1399.82</ele>
        <time>2015-10-15T08:24:42Z</time>
      </trkpt>
      <trkpt lat="44.46485" lon="5.61298">
        <ele>1401.26</ele>
        <time>2015-10-15T08:24:59Z</time>
      </trkpt>
      <trkpt lat="44.4648" lon="5.61287">
        <ele>1403.18</ele>
        <time>2015-10-15T08:25:13Z</time>
      </trkpt>
      <trkpt lat="44.46476" lon="5.61278">
        <ele>1404.14</ele>
        <time>2015-10-15T08:25:23Z</time>
      </trkpt>
      <trkpt lat="44.46475" lon="5.61263">
        <ele>1406.07</ele>
        <time>2015-10-15T08:25:37Z</time>
      </trkpt>
      <trkpt lat="44.46475" lon="5.61256">
        <ele>1406.55</ele>
        <time>2015-10-15T08:25:42Z</time>
      </trkpt>
      <trkpt lat="44.46473" lon="5.61241">
        <ele>1407.51</ele>
        <time>2015-10-15T08:25:54Z</time>
      </trkpt>
      <trkpt lat="44.46474" lon="5.61218">
        <ele>1408.95</ele>
        <time>2015-10-15T08:26:10Z</time>
      </trkpt>
      <trkpt lat="44.46475" lon="5.61194">
        <ele>1409.43</ele>
        <time>2015-10-15T08:26:27Z</time>
      </trkpt>
      <trkpt lat="44.46472" lon="5.61182">
        <ele>1409.91</ele>
        <time>2015-10-15T08:26:37Z</time>
      </trkpt>
      <trkpt lat="44.46462" lon="5.61174">
        <ele>1410.87</ele>
        <time>2015-10-15T08:26:49Z</time>
      </trkpt>
      <trkpt lat="44.46441" lon="5.61172">
        <ele>1412.31</ele>
        <time>2015-10-15T08:27:06Z</time>
      </trkpt>
      <trkpt lat="44.46436" lon="5.61174">
        <ele>1412.79</ele>
        <time>2015-10-15T08:27:09Z</time>
      </trkpt>
      <trkpt lat="44.46418" lon="5.61191">
        <ele>1413.76</ele>
        <time>2015-10-15T08:27:27Z</time>
      </trkpt>
      <trkpt lat="44.46403" lon="5.61201">
        <ele>1414.24</ele>
        <time>2015-10-15T08:27:43Z</time>
      </trkpt>
      <trkpt lat="44.46389" lon="5.61203">
        <ele>1415.2</ele>
        <time>2015-10-15T08:27:56Z</time>
      </trkpt>
      <trkpt lat="44.46387" lon="5.61203">
        <ele>1415.68</ele>
        <time>2015-10-15T08:27:58Z</time>
      </trkpt>
      <trkpt lat="44.46371" lon="5.612">
        <ele>1416.64</ele>
        <time>2015-10-15T08:28:16Z</time>
      </trkpt>
      <trkpt lat="44.46356" lon="5.61204">
        <ele>1418.08</ele>
        <time>2015-10-15T08:28:33Z</time>
      </trkpt>
      <trkpt lat="44.46342" lon="5.61202">
        <ele>1419.52</ele>
        <time>2015-10-15T08:28:50Z</time>
      </trkpt>
      <trkpt lat="44.46326" lon="5.61197">
        <ele>1420.49</ele>
        <time>2015-10-15T08:29:07Z</time>
      </trkpt>
      <trkpt lat="44.4631" lon="5.61191">
        <ele>1421.93</ele>
        <time>2015-10-15T08:29:23Z</time>
      </trkpt>
      <trkpt lat="44.46296" lon="5.61188">
        <ele>1423.37</ele>
        <time>2015-10-15T08:29:39Z</time>
      </trkpt>
      <trkpt lat="44.46281" lon="5.61185">
        <ele>1424.81</ele>
        <time>2015-10-15T08:29:55Z</time>
      </trkpt>
      <trkpt lat="44.46264" lon="5.61179">
        <ele>1426.73</ele>
        <time>2015-10-15T08:30:14Z</time>
      </trkpt>
      <trkpt lat="44.4625" lon="5.61173">
        <ele>1428.66</ele>
        <time>2015-10-15T08:30:33Z</time>
      </trkpt>
      <trkpt lat="44.46238" lon="5.61168">
        <ele>1432.02</ele>
        <time>2015-10-15T08:30:49Z</time>
      </trkpt>
      <trkpt lat="44.46222" lon="5.6116">
        <ele>1432.98</ele>
        <time>2015-10-15T08:31:07Z</time>
      </trkpt>
      <trkpt lat="44.46201" lon="5.61161">
        <ele>1434.42</ele>
        <time>2015-10-15T08:31:24Z</time>
      </trkpt>
      <trkpt lat="44.46188" lon="5.61171">
        <ele>1435.87</ele>
        <time>2015-10-15T08:31:41Z</time>
      </trkpt>
      <trkpt lat="44.4619" lon="5.61176">
        <ele>1435.39</ele>
        <time>2015-10-15T08:32:00Z</time>
      </trkpt>
      <trkpt lat="44.46191" lon="5.61174">
        <ele>1434.91</ele>
        <time>2015-10-15T08:32:24Z</time>
      </trkpt>
      <trkpt lat="44.46192" lon="5.61177">
        <ele>1434.91</ele>
        <time>2015-10-15T08:32:43Z</time>
      </trkpt>
      <trkpt lat="44.46186" lon="5.61176">
        <ele>1436.83</ele>
        <time>2015-10-15T08:32:50Z</time>
      </trkpt>
      <trkpt lat="44.46167" lon="5.61172">
        <ele>1437.79</ele>
        <time>2015-10-15T08:33:08Z</time>
      </trkpt>
      <trkpt lat="44.4615" lon="5.61171">
        <ele>1440.67</ele>
        <time>2015-10-15T08:33:26Z</time>
      </trkpt>
      <trkpt lat="44.46135" lon="5.61168">
        <ele>1441.63</ele>
        <time>2015-10-15T08:33:34Z</time>
      </trkpt>
      <trkpt lat="44.46119" lon="5.61173">
        <ele>1443.08</ele>
        <time>2015-10-15T08:33:50Z</time>
      </trkpt>
      <trkpt lat="44.46107" lon="5.61177">
        <ele>1444.52</ele>
        <time>2015-10-15T08:34:06Z</time>
      </trkpt>
      <trkpt lat="44.46097" lon="5.61179">
        <ele>1445</ele>
        <time>2015-10-15T08:34:27Z</time>
      </trkpt>
      <trkpt lat="44.46086" lon="5.61181">
        <ele>1445.96</ele>
        <time>2015-10-15T08:34:36Z</time>
      </trkpt>
      <trkpt lat="44.46084" lon="5.61187">
        <ele>1446.44</ele>
        <time>2015-10-15T08:34:55Z</time>
      </trkpt>
      <trkpt lat="44.46066" lon="5.61185">
        <ele>1447.88</ele>
        <time>2015-10-15T08:35:11Z</time>
      </trkpt>
      <trkpt lat="44.46057" lon="5.61185">
        <ele>1449.32</ele>
        <time>2015-10-15T08:35:20Z</time>
      </trkpt>
      <trkpt lat="44.46036" lon="5.61192">
        <ele>1450.29</ele>
        <time>2015-10-15T08:35:36Z</time>
      </trkpt>
      <trkpt lat="44.46029" lon="5.61199">
        <ele>1451.25</ele>
        <time>2015-10-15T08:35:44Z</time>
      </trkpt>
      <trkpt lat="44.46017" lon="5.61215">
        <ele>1452.69</ele>
        <time>2015-10-15T08:35:59Z</time>
      </trkpt>
      <trkpt lat="44.46017" lon="5.61238">
        <ele>1454.13</ele>
        <time>2015-10-15T08:36:14Z</time>
      </trkpt>
      <trkpt lat="44.46018" lon="5.61258">
        <ele>1456.05</ele>
        <time>2015-10-15T08:36:26Z</time>
      </trkpt>
      <trkpt lat="44.46017" lon="5.61265">
        <ele>1456.05</ele>
        <time>2015-10-15T08:36:31Z</time>
      </trkpt>
      <trkpt lat="44.46004" lon="5.61266">
        <ele>1456.05</ele>
        <time>2015-10-15T08:36:45Z</time>
      </trkpt>
      <trkpt lat="44.45988" lon="5.61252">
        <ele>1456.53</ele>
        <time>2015-10-15T08:37:02Z</time>
      </trkpt>
      <trkpt lat="44.45978" lon="5.61245">
        <ele>1456.53</ele>
        <time>2015-10-15T08:37:13Z</time>
      </trkpt>
      <trkpt lat="44.45959" lon="5.61238">
        <ele>1457.02</ele>
        <time>2015-10-15T08:37:31Z</time>
      </trkpt>
      <trkpt lat="44.45938" lon="5.61235">
        <ele>1457.5</ele>
        <time>2015-10-15T08:37:47Z</time>
      </trkpt>
      <trkpt lat="44.45926" lon="5.61231">
        <ele>1457.5</ele>
        <time>2015-10-15T08:37:57Z</time>
      </trkpt>
      <trkpt lat="44.4591" lon="5.6122">
        <ele>1457.98</ele>
        <time>2015-10-15T08:38:12Z</time>
      </trkpt>
      <trkpt lat="44.45898" lon="5.61201">
        <ele>1457.5</ele>
        <time>2015-10-15T08:38:27Z</time>
      </trkpt>
      <trkpt lat="44.45886" lon="5.61186">
        <ele>1457.02</ele>
        <time>2015-10-15T08:38:41Z</time>
      </trkpt>
      <trkpt lat="44.45864" lon="5.61174">
        <ele>1457.02</ele>
        <time>2015-10-15T08:38:56Z</time>
      </trkpt>
      <trkpt lat="44.45848" lon="5.61172">
        <ele>1457.02</ele>
        <time>2015-10-15T08:39:08Z</time>
      </trkpt>
      <trkpt lat="44.45832" lon="5.61159">
        <ele>1457.02</ele>
        <time>2015-10-15T08:39:23Z</time>
      </trkpt>
      <trkpt lat="44.45834" lon="5.6114">
        <ele>1457.98</ele>
        <time>2015-10-15T08:39:37Z</time>
      </trkpt>
      <trkpt lat="44.45835" lon="5.61116">
        <ele>1457.98</ele>
        <time>2015-10-15T08:39:51Z</time>
      </trkpt>
      <trkpt lat="44.45831" lon="5.6109">
        <ele>1457.98</ele>
        <time>2015-10-15T08:40:06Z</time>
      </trkpt>
      <trkpt lat="44.45834" lon="5.61058">
        <ele>1457.5</ele>
        <time>2015-10-15T08:40:23Z</time>
      </trkpt>
      <trkpt lat="44.45837" lon="5.61032">
        <ele>1457.5</ele>
        <time>2015-10-15T08:40:39Z</time>
      </trkpt>
      <trkpt lat="44.45838" lon="5.61027">
        <ele>1457.5</ele>
        <time>2015-10-15T08:40:44Z</time>
      </trkpt>
      <trkpt lat="44.45839" lon="5.61024">
        <ele>1457.98</ele>
        <time>2015-10-15T08:40:46Z</time>
      </trkpt>
      <trkpt lat="44.45837" lon="5.61018">
        <ele>1457.98</ele>
        <time>2015-10-15T08:41:00Z</time>
      </trkpt>
      <trkpt lat="44.45838" lon="5.61016">
        <ele>1457.98</ele>
        <time>2015-10-15T08:41:17Z</time>
      </trkpt>
      <trkpt lat="44.45836" lon="5.61014">
        <ele>1457.5</ele>
        <time>2015-10-15T08:41:33Z</time>
      </trkpt>
      <trkpt lat="44.45836" lon="5.61016">
        <ele>1457.98</ele>
        <time>2015-10-15T08:41:56Z</time>
      </trkpt>
      <trkpt lat="44.45836" lon="5.61018">
        <ele>1457.98</ele>
        <time>2015-10-15T08:42:17Z</time>
      </trkpt>
      <trkpt lat="44.45835" lon="5.61022">
        <ele>1458.46</ele>
        <time>2015-10-15T08:42:39Z</time>
      </trkpt>
      <trkpt lat="44.45833" lon="5.61018">
        <ele>1458.46</ele>
        <time>2015-10-15T08:42:58Z</time>
      </trkpt>
      <trkpt lat="44.45834" lon="5.6102">
        <ele>1457.02</ele>
        <time>2015-10-15T08:43:20Z</time>
      </trkpt>
      <trkpt lat="44.45834" lon="5.6102">
        <ele>1456.53</ele>
        <time>2015-10-15T08:43:44Z</time>
      </trkpt>
      <trkpt lat="44.45834" lon="5.6102">
        <ele>1456.53</ele>
        <time>2015-10-15T08:44:14Z</time>
      </trkpt>
      <trkpt lat="44.45837" lon="5.6102">
        <ele>1456.53</ele>
        <time>2015-10-15T08:44:40Z</time>
      </trkpt>
      <trkpt lat="44.4584" lon="5.61011">
        <ele>1457.02</ele>
        <time>2015-10-15T08:44:53Z</time>
      </trkpt>
      <trkpt lat="44.45848" lon="5.61003">
        <ele>1457.02</ele>
        <time>2015-10-15T08:45:04Z</time>
      </trkpt>
      <trkpt lat="44.4586" lon="5.60988">
        <ele>1459.9</ele>
        <time>2015-10-15T08:45:23Z</time>
      </trkpt>
      <trkpt lat="44.4587" lon="5.60975">
        <ele>1461.82</ele>
        <time>2015-10-15T08:45:42Z</time>
      </trkpt>
      <trkpt lat="44.45881" lon="5.60967">
        <ele>1463.74</ele>
        <time>2015-10-15T08:45:59Z</time>
      </trkpt>
      <trkpt lat="44.4589" lon="5.60963">
        <ele>1466.15</ele>
        <time>2015-10-15T08:46:16Z</time>
      </trkpt>
      <trkpt lat="44.45897" lon="5.60962">
        <ele>1468.07</ele>
        <time>2015-10-15T08:46:34Z</time>
      </trkpt>
      <trkpt lat="44.45903" lon="5.60963">
        <ele>1469.99</ele>
        <time>2015-10-15T08:46:54Z</time>
      </trkpt>
      <trkpt lat="44.4591" lon="5.60961">
        <ele>1471.92</ele>
        <time>2015-10-15T08:47:10Z</time>
      </trkpt>
      <trkpt lat="44.45919" lon="5.6096">
        <ele>1473.36</ele>
        <time>2015-10-15T08:47:29Z</time>
      </trkpt>
      <trkpt lat="44.45926" lon="5.60965">
        <ele>1475.28</ele>
        <time>2015-10-15T08:47:44Z</time>
      </trkpt>
      <trkpt lat="44.45931" lon="5.60964">
        <ele>1475.76</ele>
        <time>2015-10-15T08:48:03Z</time>
      </trkpt>
      <trkpt lat="44.45935" lon="5.60967">
        <ele>1478.65</ele>
        <time>2015-10-15T08:48:22Z</time>
      </trkpt>
      <trkpt lat="44.45943" lon="5.60965">
        <ele>1481.05</ele>
        <time>2015-10-15T08:48:38Z</time>
      </trkpt>
      <trkpt lat="44.45943" lon="5.60968">
        <ele>1483.45</ele>
        <time>2015-10-15T08:48:57Z</time>
      </trkpt>
      <trkpt lat="44.45948" lon="5.60973">
        <ele>1484.41</ele>
        <time>2015-10-15T08:49:12Z</time>
      </trkpt>
      <trkpt lat="44.45952" lon="5.60971">
        <ele>1485.37</ele>
        <time>2015-10-15T08:49:30Z</time>
      </trkpt>
      <trkpt lat="44.45958" lon="5.60971">
        <ele>1486.34</ele>
        <time>2015-10-15T08:49:47Z</time>
      </trkpt>
      <trkpt lat="44.45962" lon="5.60973">
        <ele>1488.74</ele>
        <time>2015-10-15T08:50:04Z</time>
      </trkpt>
      <trkpt lat="44.45968" lon="5.60979">
        <ele>1491.14</ele>
        <time>2015-10-15T08:50:21Z</time>
      </trkpt>
      <trkpt lat="44.45976" lon="5.60984">
        <ele>1493.06</ele>
        <time>2015-10-15T08:50:39Z</time>
      </trkpt>
      <trkpt lat="44.4598" lon="5.60984">
        <ele>1495.95</ele>
        <time>2015-10-15T08:51:00Z</time>
      </trkpt>
      <trkpt lat="44.45986" lon="5.60988">
        <ele>1497.39</ele>
        <time>2015-10-15T08:51:17Z</time>
      </trkpt>
      <trkpt lat="44.45993" lon="5.60989">
        <ele>1498.83</ele>
        <time>2015-10-15T08:51:33Z</time>
      </trkpt>
      <trkpt lat="44.45999" lon="5.60986">
        <ele>1502.68</ele>
        <time>2015-10-15T08:51:47Z</time>
      </trkpt>
      <trkpt lat="44.46006" lon="5.60982">
        <ele>1503.64</ele>
        <time>2015-10-15T08:52:05Z</time>
      </trkpt>
      <trkpt lat="44.46011" lon="5.60981">
        <ele>1505.56</ele>
        <time>2015-10-15T08:52:20Z</time>
      </trkpt>
      <trkpt lat="44.46017" lon="5.60976">
        <ele>1508.45</ele>
        <time>2015-10-15T08:52:36Z</time>
      </trkpt>
      <trkpt lat="44.46022" lon="5.60968">
        <ele>1510.85</ele>
        <time>2015-10-15T08:52:53Z</time>
      </trkpt>
      <trkpt lat="44.46029" lon="5.60959">
        <ele>1513.73</ele>
        <time>2015-10-15T08:53:11Z</time>
      </trkpt>
      <trkpt lat="44.46035" lon="5.60961">
        <ele>1515.66</ele>
        <time>2015-10-15T08:53:28Z</time>
      </trkpt>
      <trkpt lat="44.46041" lon="5.60956">
        <ele>1518.54</ele>
        <time>2015-10-15T08:53:44Z</time>
      </trkpt>
      <trkpt lat="44.46049" lon="5.60956">
        <ele>1521.9</ele>
        <time>2015-10-15T08:53:59Z</time>
      </trkpt>
      <trkpt lat="44.46054" lon="5.6096">
        <ele>1523.83</ele>
        <time>2015-10-15T08:54:15Z</time>
      </trkpt>
      <trkpt lat="44.4606" lon="5.60958">
        <ele>1526.71</ele>
        <time>2015-10-15T08:54:29Z</time>
      </trkpt>
      <trkpt lat="44.46068" lon="5.60957">
        <ele>1530.56</ele>
        <time>2015-10-15T08:54:46Z</time>
      </trkpt>
      <trkpt lat="44.46073" lon="5.60955">
        <ele>1533.92</ele>
        <time>2015-10-15T08:55:02Z</time>
      </trkpt>
      <trkpt lat="44.4608" lon="5.60959">
        <ele>1534.88</ele>
        <time>2015-10-15T08:55:18Z</time>
      </trkpt>
      <trkpt lat="44.46086" lon="5.60954">
        <ele>1537.29</ele>
        <time>2015-10-15T08:55:34Z</time>
      </trkpt>
      <trkpt lat="44.46092" lon="5.60947">
        <ele>1540.17</ele>
        <time>2015-10-15T08:55:51Z</time>
      </trkpt>
      <trkpt lat="44.46097" lon="5.6095">
        <ele>1544.01</ele>
        <time>2015-10-15T08:56:04Z</time>
      </trkpt>
      <trkpt lat="44.46101" lon="5.60947">
        <ele>1544.98</ele>
        <time>2015-10-15T08:56:20Z</time>
      </trkpt>
      <trkpt lat="44.46106" lon="5.60946">
        <ele>1547.86</ele>
        <time>2015-10-15T08:56:38Z</time>
      </trkpt>
      <trkpt lat="44.4611" lon="5.60936">
        <ele>1550.26</ele>
        <time>2015-10-15T08:56:53Z</time>
      </trkpt>
      <trkpt lat="44.46112" lon="5.60932">
        <ele>1553.63</ele>
        <time>2015-10-15T08:57:03Z</time>
      </trkpt>
      <trkpt lat="44.46116" lon="5.60921">
        <ele>1553.63</ele>
        <time>2015-10-15T08:57:21Z</time>
      </trkpt>
      <trkpt lat="44.46116" lon="5.60906">
        <ele>1555.07</ele>
        <time>2015-10-15T08:57:38Z</time>
      </trkpt>
      <trkpt lat="44.46119" lon="5.60897">
        <ele>1557.95</ele>
        <time>2015-10-15T08:57:53Z</time>
      </trkpt>
      <trkpt lat="44.46123" lon="5.60889">
        <ele>1561.32</ele>
        <time>2015-10-15T08:58:08Z</time>
      </trkpt>
      <trkpt lat="44.46125" lon="5.60879">
        <ele>1563.24</ele>
        <time>2015-10-15T08:58:27Z</time>
      </trkpt>
      <trkpt lat="44.46128" lon="5.60878">
        <ele>1565.16</ele>
        <time>2015-10-15T08:58:50Z</time>
      </trkpt>
      <trkpt lat="44.46131" lon="5.60865">
        <ele>1567.57</ele>
        <time>2015-10-15T08:59:10Z</time>
      </trkpt>
      <trkpt lat="44.46131" lon="5.60857">
        <ele>1569.01</ele>
        <time>2015-10-15T08:59:26Z</time>
      </trkpt>
      <trkpt lat="44.46131" lon="5.60856">
        <ele>1569.01</ele>
        <time>2015-10-15T08:59:28Z</time>
      </trkpt>
      <trkpt lat="44.46133" lon="5.60852">
        <ele>1572.37</ele>
        <time>2015-10-15T08:59:43Z</time>
      </trkpt>
      <trkpt lat="44.46135" lon="5.60843">
        <ele>1576.7</ele>
        <time>2015-10-15T08:59:55Z</time>
      </trkpt>
      <trkpt lat="44.46134" lon="5.60839">
        <ele>1574.3</ele>
        <time>2015-10-15T09:00:15Z</time>
      </trkpt>
      <trkpt lat="44.46137" lon="5.6083">
        <ele>1577.18</ele>
        <time>2015-10-15T09:00:34Z</time>
      </trkpt>
      <trkpt lat="44.46141" lon="5.60831">
        <ele>1578.62</ele>
        <time>2015-10-15T09:00:50Z</time>
      </trkpt>
      <trkpt lat="44.4614" lon="5.60823">
        <ele>1581.99</ele>
        <time>2015-10-15T09:01:06Z</time>
      </trkpt>
      <trkpt lat="44.46142" lon="5.60822">
        <ele>1581.51</ele>
        <time>2015-10-15T09:01:22Z</time>
      </trkpt>
      <trkpt lat="44.46147" lon="5.60824">
        <ele>1584.87</ele>
        <time>2015-10-15T09:01:35Z</time>
      </trkpt>
      <trkpt lat="44.46151" lon="5.60816">
        <ele>1586.31</ele>
        <time>2015-10-15T09:01:48Z</time>
      </trkpt>
      <trkpt lat="44.46153" lon="5.60821">
        <ele>1589.2</ele>
        <time>2015-10-15T09:01:59Z</time>
      </trkpt>
      <trkpt lat="44.46161" lon="5.60821">
        <ele>1592.08</ele>
        <time>2015-10-15T09:02:17Z</time>
      </trkpt>
      <trkpt lat="44.46167" lon="5.60822">
        <ele>1594.48</ele>
        <time>2015-10-15T09:02:32Z</time>
      </trkpt>
      <trkpt lat="44.46172" lon="5.60822">
        <ele>1596.41</ele>
        <time>2015-10-15T09:02:46Z</time>
      </trkpt>
      <trkpt lat="44.46174" lon="5.60821">
        <ele>1595.45</ele>
        <time>2015-10-15T09:03:17Z</time>
      </trkpt>
      <trkpt lat="44.46174" lon="5.60815">
        <ele>1597.37</ele>
        <time>2015-10-15T09:03:30Z</time>
      </trkpt>
      <trkpt lat="44.46176" lon="5.60808">
        <ele>1601.21</ele>
        <time>2015-10-15T09:03:43Z</time>
      </trkpt>
      <trkpt lat="44.46176" lon="5.60799">
        <ele>1602.17</ele>
        <time>2015-10-15T09:03:58Z</time>
      </trkpt>
      <trkpt lat="44.46178" lon="5.60799">
        <ele>1602.17</ele>
        <time>2015-10-15T09:04:23Z</time>
      </trkpt>
      <trkpt lat="44.46177" lon="5.608">
        <ele>1602.17</ele>
        <time>2015-10-15T09:04:49Z</time>
      </trkpt>
      <trkpt lat="44.46179" lon="5.60803">
        <ele>1602.17</ele>
        <time>2015-10-15T09:05:16Z</time>
      </trkpt>
      <trkpt lat="44.46179" lon="5.60801">
        <ele>1596.41</ele>
        <time>2015-10-15T09:05:43Z</time>
      </trkpt>
      <trkpt lat="44.4618" lon="5.60803">
        <ele>1607.94</ele>
        <time>2015-10-15T09:05:44Z</time>
      </trkpt>
      <trkpt lat="44.4618" lon="5.60803">
        <ele>1602.66</ele>
        <time>2015-10-15T09:05:45Z</time>
      </trkpt>
      <trkpt lat="44.46178" lon="5.60795">
        <ele>1605.06</ele>
        <time>2015-10-15T09:05:59Z</time>
      </trkpt>
      <trkpt lat="44.46174" lon="5.60782">
        <ele>1606.98</ele>
        <time>2015-10-15T09:06:16Z</time>
      </trkpt>
      <trkpt lat="44.46172" lon="5.60771">
        <ele>1609.38</ele>
        <time>2015-10-15T09:06:33Z</time>
      </trkpt>
      <trkpt lat="44.46172" lon="5.60759">
        <ele>1612.75</ele>
        <time>2015-10-15T09:06:50Z</time>
      </trkpt>
      <trkpt lat="44.46171" lon="5.60752">
        <ele>1615.63</ele>
        <time>2015-10-15T09:07:01Z</time>
      </trkpt>
      <trkpt lat="44.46171" lon="5.60752">
        <ele>1614.19</ele>
        <time>2015-10-15T09:07:04Z</time>
      </trkpt>
      <trkpt lat="44.4617" lon="5.60748">
        <ele>1615.15</ele>
        <time>2015-10-15T09:07:21Z</time>
      </trkpt>
      <trkpt lat="44.46172" lon="5.6074">
        <ele>1615.15</ele>
        <time>2015-10-15T09:07:38Z</time>
      </trkpt>
      <trkpt lat="44.46173" lon="5.6073">
        <ele>1617.56</ele>
        <time>2015-10-15T09:07:53Z</time>
      </trkpt>
      <trkpt lat="44.46169" lon="5.60736">
        <ele>1616.11</ele>
        <time>2015-10-15T09:08:12Z</time>
      </trkpt>
      <trkpt lat="44.46168" lon="5.60733">
        <ele>1614.19</ele>
        <time>2015-10-15T09:08:26Z</time>
      </trkpt>
      <trkpt lat="44.46168" lon="5.60728">
        <ele>1613.71</ele>
        <time>2015-10-15T09:08:52Z</time>
      </trkpt>
      <trkpt lat="44.4617" lon="5.60727">
        <ele>1613.71</ele>
        <time>2015-10-15T09:09:28Z</time>
      </trkpt>
      <trkpt lat="44.4617" lon="5.60737">
        <ele>1614.19</ele>
        <time>2015-10-15T09:09:50Z</time>
      </trkpt>
      <trkpt lat="44.46173" lon="5.60728">
        <ele>1616.11</ele>
        <time>2015-10-15T09:10:06Z</time>
      </trkpt>
      <trkpt lat="44.46175" lon="5.60719">
        <ele>1619</ele>
        <time>2015-10-15T09:10:15Z</time>
      </trkpt>
      <trkpt lat="44.46178" lon="5.60707">
        <ele>1620.44</ele>
        <time>2015-10-15T09:10:31Z</time>
      </trkpt>
      <trkpt lat="44.46179" lon="5.60707">
        <ele>1621.4</ele>
        <time>2015-10-15T09:10:33Z</time>
      </trkpt>
      <trkpt lat="44.46186" lon="5.60716">
        <ele>1624.77</ele>
        <time>2015-10-15T09:10:51Z</time>
      </trkpt>
      <trkpt lat="44.46193" lon="5.60708">
        <ele>1627.17</ele>
        <time>2015-10-15T09:11:08Z</time>
      </trkpt>
      <trkpt lat="44.46197" lon="5.60699">
        <ele>1629.57</ele>
        <time>2015-10-15T09:11:25Z</time>
      </trkpt>
      <trkpt lat="44.46203" lon="5.60691">
        <ele>1631.49</ele>
        <time>2015-10-15T09:11:47Z</time>
      </trkpt>
      <trkpt lat="44.46206" lon="5.60693">
        <ele>1632.94</ele>
        <time>2015-10-15T09:12:08Z</time>
      </trkpt>
      <trkpt lat="44.46211" lon="5.60699">
        <ele>1636.78</ele>
        <time>2015-10-15T09:12:22Z</time>
      </trkpt>
      <trkpt lat="44.46212" lon="5.60699">
        <ele>1636.3</ele>
        <time>2015-10-15T09:12:23Z</time>
      </trkpt>
      <trkpt lat="44.46215" lon="5.60697">
        <ele>1640.15</ele>
        <time>2015-10-15T09:12:32Z</time>
      </trkpt>
      <trkpt lat="44.46215" lon="5.60696">
        <ele>1640.15</ele>
        <time>2015-10-15T09:12:33Z</time>
      </trkpt>
      <trkpt lat="44.46219" lon="5.6069">
        <ele>1641.59</ele>
        <time>2015-10-15T09:12:46Z</time>
      </trkpt>
      <trkpt lat="44.46223" lon="5.60685">
        <ele>1643.03</ele>
        <time>2015-10-15T09:13:02Z</time>
      </trkpt>
      <trkpt lat="44.46227" lon="5.60679">
        <ele>1646.4</ele>
        <time>2015-10-15T09:13:16Z</time>
      </trkpt>
      <trkpt lat="44.46234" lon="5.60688">
        <ele>1647.36</ele>
        <time>2015-10-15T09:13:32Z</time>
      </trkpt>
      <trkpt lat="44.46238" lon="5.60686">
        <ele>1650.24</ele>
        <time>2015-10-15T09:13:49Z</time>
      </trkpt>
      <trkpt lat="44.46237" lon="5.60689">
        <ele>1650.72</ele>
        <time>2015-10-15T09:14:09Z</time>
      </trkpt>
      <trkpt lat="44.46234" lon="5.607">
        <ele>1648.8</ele>
        <time>2015-10-15T09:14:35Z</time>
      </trkpt>
      <trkpt lat="44.46236" lon="5.60689">
        <ele>1648.8</ele>
        <time>2015-10-15T09:14:55Z</time>
      </trkpt>
      <trkpt lat="44.46239" lon="5.60689">
        <ele>1649.76</ele>
        <time>2015-10-15T09:15:08Z</time>
      </trkpt>
      <trkpt lat="44.46243" lon="5.6069">
        <ele>1651.2</ele>
        <time>2015-10-15T09:15:21Z</time>
      </trkpt>
      <trkpt lat="44.46244" lon="5.60689">
        <ele>1651.68</ele>
        <time>2015-10-15T09:15:38Z</time>
      </trkpt>
      <trkpt lat="44.46242" lon="5.60687">
        <ele>1651.68</ele>
        <time>2015-10-15T09:15:55Z</time>
      </trkpt>
      <trkpt lat="44.46242" lon="5.60687">
        <ele>1651.2</ele>
        <time>2015-10-15T09:16:19Z</time>
      </trkpt>
      <trkpt lat="44.46246" lon="5.60687">
        <ele>1653.12</ele>
        <time>2015-10-15T09:16:47Z</time>
      </trkpt>
      <trkpt lat="44.46253" lon="5.60682">
        <ele>1655.05</ele>
        <time>2015-10-15T09:17:03Z</time>
      </trkpt>
      <trkpt lat="44.46259" lon="5.60678">
        <ele>1657.45</ele>
        <time>2015-10-15T09:17:19Z</time>
      </trkpt>
      <trkpt lat="44.46265" lon="5.60664">
        <ele>1658.89</ele>
        <time>2015-10-15T09:17:38Z</time>
      </trkpt>
      <trkpt lat="44.46268" lon="5.60667">
        <ele>1661.3</ele>
        <time>2015-10-15T09:17:53Z</time>
      </trkpt>
      <trkpt lat="44.46273" lon="5.60666">
        <ele>1663.7</ele>
        <time>2015-10-15T09:18:08Z</time>
      </trkpt>
      <trkpt lat="44.46279" lon="5.60665">
        <ele>1667.06</ele>
        <time>2015-10-15T09:18:25Z</time>
      </trkpt>
      <trkpt lat="44.4628" lon="5.60665">
        <ele>1667.06</ele>
        <time>2015-10-15T09:18:47Z</time>
      </trkpt>
      <trkpt lat="44.46287" lon="5.60666">
        <ele>1668.99</ele>
        <time>2015-10-15T09:19:02Z</time>
      </trkpt>
      <trkpt lat="44.46295" lon="5.60669">
        <ele>1671.39</ele>
        <time>2015-10-15T09:19:19Z</time>
      </trkpt>
      <trkpt lat="44.46301" lon="5.60671">
        <ele>1674.75</ele>
        <time>2015-10-15T09:19:31Z</time>
      </trkpt>
      <trkpt lat="44.4631" lon="5.60672">
        <ele>1677.64</ele>
        <time>2015-10-15T09:19:50Z</time>
      </trkpt>
      <trkpt lat="44.46317" lon="5.60674">
        <ele>1680.04</ele>
        <time>2015-10-15T09:20:08Z</time>
      </trkpt>
      <trkpt lat="44.46322" lon="5.60673">
        <ele>1682.44</ele>
        <time>2015-10-15T09:20:23Z</time>
      </trkpt>
      <trkpt lat="44.46331" lon="5.60673">
        <ele>1684.85</ele>
        <time>2015-10-15T09:20:40Z</time>
      </trkpt>
      <trkpt lat="44.46337" lon="5.6067">
        <ele>1686.77</ele>
        <time>2015-10-15T09:20:56Z</time>
      </trkpt>
      <trkpt lat="44.46341" lon="5.60669">
        <ele>1690.14</ele>
        <time>2015-10-15T09:21:07Z</time>
      </trkpt>
      <trkpt lat="44.46346" lon="5.60669">
        <ele>1693.5</ele>
        <time>2015-10-15T09:21:24Z</time>
      </trkpt>
      <trkpt lat="44.46346" lon="5.60668">
        <ele>1693.98</ele>
        <time>2015-10-15T09:21:25Z</time>
      </trkpt>
      <trkpt lat="44.46342" lon="5.60661">
        <ele>1694.46</ele>
        <time>2015-10-15T09:21:47Z</time>
      </trkpt>
      <trkpt lat="44.46346" lon="5.60664">
        <ele>1694.46</ele>
        <time>2015-10-15T09:22:17Z</time>
      </trkpt>
      <trkpt lat="44.46349" lon="5.60663">
        <ele>1697.83</ele>
        <time>2015-10-15T09:22:21Z</time>
      </trkpt>
      <trkpt lat="44.46355" lon="5.60655">
        <ele>1696.86</ele>
        <time>2015-10-15T09:22:34Z</time>
      </trkpt>
      <trkpt lat="44.4636" lon="5.60649">
        <ele>1698.79</ele>
        <time>2015-10-15T09:22:49Z</time>
      </trkpt>
      <trkpt lat="44.46366" lon="5.60634">
        <ele>1701.67</ele>
        <time>2015-10-15T09:23:08Z</time>
      </trkpt>
      <trkpt lat="44.46367" lon="5.60631">
        <ele>1700.71</ele>
        <time>2015-10-15T09:23:12Z</time>
      </trkpt>
      <trkpt lat="44.46373" lon="5.60624">
        <ele>1701.19</ele>
        <time>2015-10-15T09:23:28Z</time>
      </trkpt>
      <trkpt lat="44.46373" lon="5.60625">
        <ele>1702.63</ele>
        <time>2015-10-15T09:23:32Z</time>
      </trkpt>
      <trkpt lat="44.46372" lon="5.60625">
        <ele>1701.67</ele>
        <time>2015-10-15T09:23:38Z</time>
      </trkpt>
      <trkpt lat="44.46371" lon="5.60617">
        <ele>1704.55</ele>
        <time>2015-10-15T09:23:43Z</time>
      </trkpt>
      <trkpt lat="44.46371" lon="5.60611">
        <ele>1705.04</ele>
        <time>2015-10-15T09:24:01Z</time>
      </trkpt>
      <trkpt lat="44.46371" lon="5.60611">
        <ele>1702.15</ele>
        <time>2015-10-15T09:24:25Z</time>
      </trkpt>
      <trkpt lat="44.46373" lon="5.60613">
        <ele>1701.67</ele>
        <time>2015-10-15T09:24:54Z</time>
      </trkpt>
      <trkpt lat="44.46374" lon="5.60611">
        <ele>1701.67</ele>
        <time>2015-10-15T09:25:15Z</time>
      </trkpt>
      <trkpt lat="44.46377" lon="5.60602">
        <ele>1702.15</ele>
        <time>2015-10-15T09:25:38Z</time>
      </trkpt>
      <trkpt lat="44.46376" lon="5.60601">
        <ele>1703.11</ele>
        <time>2015-10-15T09:25:56Z</time>
      </trkpt>
      <trkpt lat="44.46376" lon="5.60603">
        <ele>1700.71</ele>
        <time>2015-10-15T09:26:21Z</time>
      </trkpt>
      <trkpt lat="44.46374" lon="5.60604">
        <ele>1703.11</ele>
        <time>2015-10-15T09:26:27Z</time>
      </trkpt>
      <trkpt lat="44.4637" lon="5.60605">
        <ele>1703.59</ele>
        <time>2015-10-15T09:27:02Z</time>
      </trkpt>
      <trkpt lat="44.4638" lon="5.60594">
        <ele>1704.07</ele>
        <time>2015-10-15T09:27:19Z</time>
      </trkpt>
      <trkpt lat="44.46391" lon="5.6058">
        <ele>1706</ele>
        <time>2015-10-15T09:27:37Z</time>
      </trkpt>
      <trkpt lat="44.46398" lon="5.60571">
        <ele>1708.88</ele>
        <time>2015-10-15T09:27:55Z</time>
      </trkpt>
      <trkpt lat="44.46407" lon="5.60562">
        <ele>1711.76</ele>
        <time>2015-10-15T09:28:16Z</time>
      </trkpt>
      <trkpt lat="44.46414" lon="5.60552">
        <ele>1713.69</ele>
        <time>2015-10-15T09:28:32Z</time>
      </trkpt>
      <trkpt lat="44.46421" lon="5.60541">
        <ele>1716.09</ele>
        <time>2015-10-15T09:28:52Z</time>
      </trkpt>
      <trkpt lat="44.46425" lon="5.60535">
        <ele>1718.97</ele>
        <time>2015-10-15T09:29:10Z</time>
      </trkpt>
      <trkpt lat="44.46434" lon="5.60525">
        <ele>1720.9</ele>
        <time>2015-10-15T09:29:30Z</time>
      </trkpt>
      <trkpt lat="44.46444" lon="5.60515">
        <ele>1723.78</ele>
        <time>2015-10-15T09:29:49Z</time>
      </trkpt>
      <trkpt lat="44.46451" lon="5.60507">
        <ele>1727.15</ele>
        <time>2015-10-15T09:30:05Z</time>
      </trkpt>
      <trkpt lat="44.46459" lon="5.60496">
        <ele>1729.55</ele>
        <time>2015-10-15T09:30:24Z</time>
      </trkpt>
      <trkpt lat="44.46465" lon="5.60488">
        <ele>1731.47</ele>
        <time>2015-10-15T09:30:41Z</time>
      </trkpt>
      <trkpt lat="44.46469" lon="5.60483">
        <ele>1734.84</ele>
        <time>2015-10-15T09:30:59Z</time>
      </trkpt>
      <trkpt lat="44.46473" lon="5.60477">
        <ele>1736.76</ele>
        <time>2015-10-15T09:31:16Z</time>
      </trkpt>
      <trkpt lat="44.46475" lon="5.60469">
        <ele>1738.68</ele>
        <time>2015-10-15T09:31:34Z</time>
      </trkpt>
      <trkpt lat="44.46479" lon="5.60464">
        <ele>1740.6</ele>
        <time>2015-10-15T09:31:50Z</time>
      </trkpt>
      <trkpt lat="44.46483" lon="5.60457">
        <ele>1743.01</ele>
        <time>2015-10-15T09:32:01Z</time>
      </trkpt>
      <trkpt lat="44.46488" lon="5.60449">
        <ele>1746.37</ele>
        <time>2015-10-15T09:32:17Z</time>
      </trkpt>
      <trkpt lat="44.46495" lon="5.6044">
        <ele>1748.29</ele>
        <time>2015-10-15T09:32:34Z</time>
      </trkpt>
      <trkpt lat="44.46501" lon="5.60433">
        <ele>1750.7</ele>
        <time>2015-10-15T09:32:50Z</time>
      </trkpt>
      <trkpt lat="44.46505" lon="5.60427">
        <ele>1753.58</ele>
        <time>2015-10-15T09:33:01Z</time>
      </trkpt>
      <trkpt lat="44.46513" lon="5.60416">
        <ele>1755.02</ele>
        <time>2015-10-15T09:33:19Z</time>
      </trkpt>
      <trkpt lat="44.46518" lon="5.6041">
        <ele>1756.47</ele>
        <time>2015-10-15T09:33:30Z</time>
      </trkpt>
      <trkpt lat="44.46526" lon="5.60401">
        <ele>1758.39</ele>
        <time>2015-10-15T09:33:47Z</time>
      </trkpt>
      <trkpt lat="44.46532" lon="5.60391">
        <ele>1760.31</ele>
        <time>2015-10-15T09:34:03Z</time>
      </trkpt>
      <trkpt lat="44.46534" lon="5.60388">
        <ele>1761.75</ele>
        <time>2015-10-15T09:34:07Z</time>
      </trkpt>
      <trkpt lat="44.46542" lon="5.60379">
        <ele>1761.75</ele>
        <time>2015-10-15T09:34:24Z</time>
      </trkpt>
      <trkpt lat="44.46547" lon="5.60369">
        <ele>1765.12</ele>
        <time>2015-10-15T09:34:38Z</time>
      </trkpt>
      <trkpt lat="44.46548" lon="5.60361">
        <ele>1765.6</ele>
        <time>2015-10-15T09:34:52Z</time>
      </trkpt>
      <trkpt lat="44.46549" lon="5.60361">
        <ele>1765.6</ele>
        <time>2015-10-15T09:35:18Z</time>
      </trkpt>
      <trkpt lat="44.4655" lon="5.6036">
        <ele>1765.12</ele>
        <time>2015-10-15T09:35:21Z</time>
      </trkpt>
      <trkpt lat="44.46556" lon="5.60349">
        <ele>1765.6</ele>
        <time>2015-10-15T09:35:36Z</time>
      </trkpt>
      <trkpt lat="44.46554" lon="5.6035">
        <ele>1766.56</ele>
        <time>2015-10-15T09:35:46Z</time>
      </trkpt>
      <trkpt lat="44.46552" lon="5.60351">
        <ele>1765.6</ele>
        <time>2015-10-15T09:35:59Z</time>
      </trkpt>
      <trkpt lat="44.46554" lon="5.60354">
        <ele>1765.6</ele>
        <time>2015-10-15T09:36:17Z</time>
      </trkpt>
      <trkpt lat="44.46554" lon="5.60353">
        <ele>1766.56</ele>
        <time>2015-10-15T09:36:24Z</time>
      </trkpt>
      <trkpt lat="44.46553" lon="5.60356">
        <ele>1767.52</ele>
        <time>2015-10-15T09:36:39Z</time>
      </trkpt>
      <trkpt lat="44.46554" lon="5.60355">
        <ele>1767.04</ele>
        <time>2015-10-15T09:36:52Z</time>
      </trkpt>
      <trkpt lat="44.46549" lon="5.60355">
        <ele>1766.56</ele>
        <time>2015-10-15T09:37:08Z</time>
      </trkpt>
      <trkpt lat="44.4655" lon="5.60359">
        <ele>1765.12</ele>
        <time>2015-10-15T09:37:35Z</time>
      </trkpt>
      <trkpt lat="44.4655" lon="5.60358">
        <ele>1765.12</ele>
        <time>2015-10-15T09:37:55Z</time>
      </trkpt>
      <trkpt lat="44.46551" lon="5.60358">
        <ele>1764.64</ele>
        <time>2015-10-15T09:38:16Z</time>
      </trkpt>
      <trkpt lat="44.46548" lon="5.60349">
        <ele>1764.16</ele>
        <time>2015-10-15T09:38:34Z</time>
      </trkpt>
      <trkpt lat="44.46549" lon="5.60348">
        <ele>1764.16</ele>
        <time>2015-10-15T09:38:56Z</time>
      </trkpt>
      <trkpt lat="44.46548" lon="5.60354">
        <ele>1764.64</ele>
        <time>2015-10-15T09:39:21Z</time>
      </trkpt>
      <trkpt lat="44.46545" lon="5.60358">
        <ele>1763.68</ele>
        <time>2015-10-15T09:39:37Z</time>
      </trkpt>
      <trkpt lat="44.46545" lon="5.60364">
        <ele>1763.68</ele>
        <time>2015-10-15T09:39:44Z</time>
      </trkpt>
      <trkpt lat="44.46537" lon="5.60379">
        <ele>1761.75</ele>
        <time>2015-10-15T09:39:59Z</time>
      </trkpt>
      <trkpt lat="44.46543" lon="5.60395">
        <ele>1759.35</ele>
        <time>2015-10-15T09:40:16Z</time>
      </trkpt>
      <trkpt lat="44.46547" lon="5.60407">
        <ele>1756.95</ele>
        <time>2015-10-15T09:40:33Z</time>
      </trkpt>
      <trkpt lat="44.46549" lon="5.60416">
        <ele>1755.02</ele>
        <time>2015-10-15T09:40:55Z</time>
      </trkpt>
      <trkpt lat="44.46549" lon="5.60425">
        <ele>1752.14</ele>
        <time>2015-10-15T09:41:08Z</time>
      </trkpt>
      <trkpt lat="44.46549" lon="5.60429">
        <ele>1751.66</ele>
        <time>2015-10-15T09:41:24Z</time>
      </trkpt>
      <trkpt lat="44.46551" lon="5.60437">
        <ele>1748.29</ele>
        <time>2015-10-15T09:41:40Z</time>
      </trkpt>
      <trkpt lat="44.4655" lon="5.6044">
        <ele>1747.81</ele>
        <time>2015-10-15T09:42:01Z</time>
      </trkpt>
      <trkpt lat="44.46555" lon="5.60442">
        <ele>1744.93</ele>
        <time>2015-10-15T09:42:14Z</time>
      </trkpt>
      <trkpt lat="44.4656" lon="5.60444">
        <ele>1743.97</ele>
        <time>2015-10-15T09:42:30Z</time>
      </trkpt>
      <trkpt lat="44.46566" lon="5.60445">
        <ele>1742.53</ele>
        <time>2015-10-15T09:42:42Z</time>
      </trkpt>
      <trkpt lat="44.46571" lon="5.60447">
        <ele>1740.6</ele>
        <time>2015-10-15T09:42:55Z</time>
      </trkpt>
      <trkpt lat="44.46579" lon="5.60447">
        <ele>1738.2</ele>
        <time>2015-10-15T09:43:10Z</time>
      </trkpt>
      <trkpt lat="44.46582" lon="5.60448">
        <ele>1734.84</ele>
        <time>2015-10-15T09:43:21Z</time>
      </trkpt>
      <trkpt lat="44.46582" lon="5.60447">
        <ele>1734.36</ele>
        <time>2015-10-15T09:43:22Z</time>
      </trkpt>
      <trkpt lat="44.46585" lon="5.60447">
        <ele>1734.36</ele>
        <time>2015-10-15T09:43:29Z</time>
      </trkpt>
      <trkpt lat="44.46585" lon="5.60447">
        <ele>1733.39</ele>
        <time>2015-10-15T09:43:31Z</time>
      </trkpt>
      <trkpt lat="44.4659" lon="5.60445">
        <ele>1732.43</ele>
        <time>2015-10-15T09:43:44Z</time>
      </trkpt>
      <trkpt lat="44.46594" lon="5.60444">
        <ele>1730.51</ele>
        <time>2015-10-15T09:43:56Z</time>
      </trkpt>
      <trkpt lat="44.46598" lon="5.60443">
        <ele>1727.15</ele>
        <time>2015-10-15T09:44:08Z</time>
      </trkpt>
      <trkpt lat="44.466" lon="5.60444">
        <ele>1727.63</ele>
        <time>2015-10-15T09:44:27Z</time>
      </trkpt>
      <trkpt lat="44.46603" lon="5.60447">
        <ele>1725.7</ele>
        <time>2015-10-15T09:44:41Z</time>
      </trkpt>
      <trkpt lat="44.46607" lon="5.60449">
        <ele>1722.34</ele>
        <time>2015-10-15T09:44:50Z</time>
      </trkpt>
      <trkpt lat="44.46607" lon="5.60449">
        <ele>1723.78</ele>
        <time>2015-10-15T09:44:53Z</time>
      </trkpt>
      <trkpt lat="44.4661" lon="5.60458">
        <ele>1720.42</ele>
        <time>2015-10-15T09:45:05Z</time>
      </trkpt>
      <trkpt lat="44.46611" lon="5.60459">
        <ele>1719.46</ele>
        <time>2015-10-15T09:45:07Z</time>
      </trkpt>
      <trkpt lat="44.46612" lon="5.60463">
        <ele>1717.53</ele>
        <time>2015-10-15T09:45:22Z</time>
      </trkpt>
      <trkpt lat="44.46611" lon="5.60464">
        <ele>1717.05</ele>
        <time>2015-10-15T09:45:45Z</time>
      </trkpt>
      <trkpt lat="44.46614" lon="5.60461">
        <ele>1716.09</ele>
        <time>2015-10-15T09:46:03Z</time>
      </trkpt>
      <trkpt lat="44.46615" lon="5.60461">
        <ele>1715.61</ele>
        <time>2015-10-15T09:46:34Z</time>
      </trkpt>
      <trkpt lat="44.46616" lon="5.60464">
        <ele>1717.05</ele>
        <time>2015-10-15T09:46:50Z</time>
      </trkpt>
      <trkpt lat="44.46613" lon="5.60471">
        <ele>1717.05</ele>
        <time>2015-10-15T09:47:12Z</time>
      </trkpt>
      <trkpt lat="44.46615" lon="5.60472">
        <ele>1713.69</ele>
        <time>2015-10-15T09:47:16Z</time>
      </trkpt>
      <trkpt lat="44.46616" lon="5.60471">
        <ele>1714.17</ele>
        <time>2015-10-15T09:47:17Z</time>
      </trkpt>
      <trkpt lat="44.46617" lon="5.60472">
        <ele>1715.13</ele>
        <time>2015-10-15T09:47:28Z</time>
      </trkpt>
      <trkpt lat="44.46618" lon="5.60471">
        <ele>1713.21</ele>
        <time>2015-10-15T09:47:33Z</time>
      </trkpt>
      <trkpt lat="44.4662" lon="5.6047">
        <ele>1713.21</ele>
        <time>2015-10-15T09:47:45Z</time>
      </trkpt>
      <trkpt lat="44.46623" lon="5.60472">
        <ele>1713.21</ele>
        <time>2015-10-15T09:48:00Z</time>
      </trkpt>
      <trkpt lat="44.46628" lon="5.60478">
        <ele>1709.84</ele>
        <time>2015-10-15T09:48:15Z</time>
      </trkpt>
      <trkpt lat="44.46629" lon="5.60478">
        <ele>1709.84</ele>
        <time>2015-10-15T09:48:16Z</time>
      </trkpt>
      <trkpt lat="44.46637" lon="5.60488">
        <ele>1706.96</ele>
        <time>2015-10-15T09:48:32Z</time>
      </trkpt>
      <trkpt lat="44.46644" lon="5.60493">
        <ele>1705.04</ele>
        <time>2015-10-15T09:48:42Z</time>
      </trkpt>
      <trkpt lat="44.46653" lon="5.60497">
        <ele>1701.67</ele>
        <time>2015-10-15T09:48:54Z</time>
      </trkpt>
      <trkpt lat="44.46658" lon="5.60501">
        <ele>1699.75</ele>
        <time>2015-10-15T09:49:01Z</time>
      </trkpt>
      <trkpt lat="44.46661" lon="5.60505">
        <ele>1698.31</ele>
        <time>2015-10-15T09:49:05Z</time>
      </trkpt>
      <trkpt lat="44.46674" lon="5.60514">
        <ele>1697.34</ele>
        <time>2015-10-15T09:49:19Z</time>
      </trkpt>
      <trkpt lat="44.46679" lon="5.60519">
        <ele>1696.86</ele>
        <time>2015-10-15T09:49:25Z</time>
      </trkpt>
      <trkpt lat="44.46682" lon="5.60521">
        <ele>1695.42</ele>
        <time>2015-10-15T09:49:28Z</time>
      </trkpt>
      <trkpt lat="44.46693" lon="5.60533">
        <ele>1698.79</ele>
        <time>2015-10-15T09:49:44Z</time>
      </trkpt>
      <trkpt lat="44.46702" lon="5.60542">
        <ele>1697.83</ele>
        <time>2015-10-15T09:49:59Z</time>
      </trkpt>
      <trkpt lat="44.46704" lon="5.60542">
        <ele>1698.79</ele>
        <time>2015-10-15T09:50:12Z</time>
      </trkpt>
      <trkpt lat="44.46705" lon="5.60543">
        <ele>1699.75</ele>
        <time>2015-10-15T09:50:14Z</time>
      </trkpt>
      <trkpt lat="44.46713" lon="5.60551">
        <ele>1703.11</ele>
        <time>2015-10-15T09:50:29Z</time>
      </trkpt>
      <trkpt lat="44.46721" lon="5.60556">
        <ele>1705.52</ele>
        <time>2015-10-15T09:50:46Z</time>
      </trkpt>
      <trkpt lat="44.46728" lon="5.6056">
        <ele>1707.44</ele>
        <time>2015-10-15T09:51:04Z</time>
      </trkpt>
      <trkpt lat="44.46734" lon="5.60563">
        <ele>1709.36</ele>
        <time>2015-10-15T09:51:21Z</time>
      </trkpt>
      <trkpt lat="44.4674" lon="5.60565">
        <ele>1712.73</ele>
        <time>2015-10-15T09:51:36Z</time>
      </trkpt>
      <trkpt lat="44.46748" lon="5.60567">
        <ele>1715.13</ele>
        <time>2015-10-15T09:51:57Z</time>
      </trkpt>
      <trkpt lat="44.46757" lon="5.6057">
        <ele>1718.49</ele>
        <time>2015-10-15T09:52:16Z</time>
      </trkpt>
      <trkpt lat="44.46762" lon="5.60571">
        <ele>1719.94</ele>
        <time>2015-10-15T09:52:31Z</time>
      </trkpt>
      <trkpt lat="44.46769" lon="5.60573">
        <ele>1721.86</ele>
        <time>2015-10-15T09:52:48Z</time>
      </trkpt>
      <trkpt lat="44.46777" lon="5.60576">
        <ele>1725.22</ele>
        <time>2015-10-15T09:53:03Z</time>
      </trkpt>
      <trkpt lat="44.46785" lon="5.60579">
        <ele>1726.67</ele>
        <time>2015-10-15T09:53:21Z</time>
      </trkpt>
      <trkpt lat="44.46788" lon="5.6058">
        <ele>1728.59</ele>
        <time>2015-10-15T09:53:25Z</time>
      </trkpt>
      <trkpt lat="44.46797" lon="5.60583">
        <ele>1730.51</ele>
        <time>2015-10-15T09:53:43Z</time>
      </trkpt>
      <trkpt lat="44.46805" lon="5.60587">
        <ele>1731.47</ele>
        <time>2015-10-15T09:54:00Z</time>
      </trkpt>
      <trkpt lat="44.46806" lon="5.60588">
        <ele>1730.99</ele>
        <time>2015-10-15T09:54:20Z</time>
      </trkpt>
      <trkpt lat="44.46803" lon="5.60596">
        <ele>1732.43</ele>
        <time>2015-10-15T09:54:28Z</time>
      </trkpt>
      <trkpt lat="44.46804" lon="5.60616">
        <ele>1732.91</ele>
        <time>2015-10-15T09:54:44Z</time>
      </trkpt>
      <trkpt lat="44.46804" lon="5.6062">
        <ele>1729.55</ele>
        <time>2015-10-15T09:54:50Z</time>
      </trkpt>
      <trkpt lat="44.46804" lon="5.6062">
        <ele>1729.55</ele>
        <time>2015-10-15T09:54:51Z</time>
      </trkpt>
      <trkpt lat="44.46805" lon="5.60613">
        <ele>1729.55</ele>
        <time>2015-10-15T09:54:56Z</time>
      </trkpt>
      <trkpt lat="44.46804" lon="5.606">
        <ele>1731.95</ele>
        <time>2015-10-15T09:55:11Z</time>
      </trkpt>
      <trkpt lat="44.46803" lon="5.606">
        <ele>1733.39</ele>
        <time>2015-10-15T09:55:13Z</time>
      </trkpt>
      <trkpt lat="44.46804" lon="5.60601">
        <ele>1729.55</ele>
        <time>2015-10-15T09:55:18Z</time>
      </trkpt>
      <trkpt lat="44.46804" lon="5.606">
        <ele>1730.03</ele>
        <time>2015-10-15T09:55:19Z</time>
      </trkpt>
      <trkpt lat="44.46804" lon="5.60597">
        <ele>1730.99</ele>
        <time>2015-10-15T09:55:21Z</time>
      </trkpt>
      <trkpt lat="44.46804" lon="5.60594">
        <ele>1729.55</ele>
        <time>2015-10-15T09:55:23Z</time>
      </trkpt>
      <trkpt lat="44.46803" lon="5.60595">
        <ele>1733.39</ele>
        <time>2015-10-15T09:55:25Z</time>
      </trkpt>
      <trkpt lat="44.46803" lon="5.60596">
        <ele>1732.43</ele>
        <time>2015-10-15T09:55:26Z</time>
      </trkpt>
      <trkpt lat="44.46803" lon="5.60599">
        <ele>1732.91</ele>
        <time>2015-10-15T09:55:28Z</time>
      </trkpt>
      <trkpt lat="44.46804" lon="5.60614">
        <ele>1732.91</ele>
        <time>2015-10-15T09:55:41Z</time>
      </trkpt>
      <trkpt lat="44.46806" lon="5.60633">
        <ele>1730.03</ele>
        <time>2015-10-15T09:55:55Z</time>
      </trkpt>
      <trkpt lat="44.4681" lon="5.60649">
        <ele>1728.11</ele>
        <time>2015-10-15T09:56:11Z</time>
      </trkpt>
      <trkpt lat="44.46813" lon="5.6066">
        <ele>1728.11</ele>
        <time>2015-10-15T09:56:22Z</time>
      </trkpt>
      <trkpt lat="44.46815" lon="5.60673">
        <ele>1724.26</ele>
        <time>2015-10-15T09:56:36Z</time>
      </trkpt>
      <trkpt lat="44.46815" lon="5.60675">
        <ele>1723.3</ele>
        <time>2015-10-15T09:56:38Z</time>
      </trkpt>
      <trkpt lat="44.46816" lon="5.60687">
        <ele>1721.38</ele>
        <time>2015-10-15T09:56:51Z</time>
      </trkpt>
      <trkpt lat="44.46816" lon="5.60688">
        <ele>1721.38</ele>
        <time>2015-10-15T09:56:52Z</time>
      </trkpt>
      <trkpt lat="44.4682" lon="5.60707">
        <ele>1718.49</ele>
        <time>2015-10-15T09:57:10Z</time>
      </trkpt>
      <trkpt lat="44.46822" lon="5.60725">
        <ele>1716.57</ele>
        <time>2015-10-15T09:57:26Z</time>
      </trkpt>
      <trkpt lat="44.46823" lon="5.60732">
        <ele>1713.69</ele>
        <time>2015-10-15T09:57:32Z</time>
      </trkpt>
      <trkpt lat="44.46823" lon="5.60754">
        <ele>1710.8</ele>
        <time>2015-10-15T09:57:49Z</time>
      </trkpt>
      <trkpt lat="44.46824" lon="5.60769">
        <ele>1708.4</ele>
        <time>2015-10-15T09:58:02Z</time>
      </trkpt>
      <trkpt lat="44.46825" lon="5.60784">
        <ele>1705.52</ele>
        <time>2015-10-15T09:58:16Z</time>
      </trkpt>
      <trkpt lat="44.46827" lon="5.60803">
        <ele>1702.15</ele>
        <time>2015-10-15T09:58:31Z</time>
      </trkpt>
      <trkpt lat="44.46831" lon="5.60824">
        <ele>1700.23</ele>
        <time>2015-10-15T09:58:49Z</time>
      </trkpt>
      <trkpt lat="44.46838" lon="5.60836">
        <ele>1696.86</ele>
        <time>2015-10-15T09:59:02Z</time>
      </trkpt>
      <trkpt lat="44.46843" lon="5.60855">
        <ele>1694.46</ele>
        <time>2015-10-15T09:59:19Z</time>
      </trkpt>
      <trkpt lat="44.46848" lon="5.60868">
        <ele>1691.1</ele>
        <time>2015-10-15T09:59:33Z</time>
      </trkpt>
      <trkpt lat="44.46851" lon="5.60885">
        <ele>1688.69</ele>
        <time>2015-10-15T09:59:49Z</time>
      </trkpt>
      <trkpt lat="44.46852" lon="5.60891">
        <ele>1687.25</ele>
        <time>2015-10-15T09:59:54Z</time>
      </trkpt>
      <trkpt lat="44.46856" lon="5.60909">
        <ele>1683.89</ele>
        <time>2015-10-15T10:00:09Z</time>
      </trkpt>
      <trkpt lat="44.46859" lon="5.60925">
        <ele>1680.52</ele>
        <time>2015-10-15T10:00:22Z</time>
      </trkpt>
      <trkpt lat="44.46861" lon="5.60944">
        <ele>1677.64</ele>
        <time>2015-10-15T10:00:37Z</time>
      </trkpt>
      <trkpt lat="44.46862" lon="5.60948">
        <ele>1676.2</ele>
        <time>2015-10-15T10:00:40Z</time>
      </trkpt>
      <trkpt lat="44.46863" lon="5.60959">
        <ele>1675.23</ele>
        <time>2015-10-15T10:00:48Z</time>
      </trkpt>
      <trkpt lat="44.46862" lon="5.60961">
        <ele>1675.23</ele>
        <time>2015-10-15T10:00:50Z</time>
      </trkpt>
      <trkpt lat="44.46867" lon="5.60979">
        <ele>1674.27</ele>
        <time>2015-10-15T10:01:05Z</time>
      </trkpt>
      <trkpt lat="44.46868" lon="5.60988">
        <ele>1673.31</ele>
        <time>2015-10-15T10:01:20Z</time>
      </trkpt>
      <trkpt lat="44.46868" lon="5.60986">
        <ele>1673.31</ele>
        <time>2015-10-15T10:01:36Z</time>
      </trkpt>
      <trkpt lat="44.46868" lon="5.60984">
        <ele>1672.83</ele>
        <time>2015-10-15T10:01:51Z</time>
      </trkpt>
      <trkpt lat="44.46862" lon="5.60992">
        <ele>1672.83</ele>
        <time>2015-10-15T10:02:06Z</time>
      </trkpt>
      <trkpt lat="44.46866" lon="5.60994">
        <ele>1672.35</ele>
        <time>2015-10-15T10:02:23Z</time>
      </trkpt>
      <trkpt lat="44.46872" lon="5.60989">
        <ele>1671.87</ele>
        <time>2015-10-15T10:02:40Z</time>
      </trkpt>
      <trkpt lat="44.46873" lon="5.60992">
        <ele>1671.39</ele>
        <time>2015-10-15T10:03:05Z</time>
      </trkpt>
      <trkpt lat="44.46874" lon="5.61002">
        <ele>1668.99</ele>
        <time>2015-10-15T10:03:20Z</time>
      </trkpt>
      <trkpt lat="44.46876" lon="5.61013">
        <ele>1667.06</ele>
        <time>2015-10-15T10:03:31Z</time>
      </trkpt>
      <trkpt lat="44.4688" lon="5.61026">
        <ele>1665.14</ele>
        <time>2015-10-15T10:03:44Z</time>
      </trkpt>
      <trkpt lat="44.46878" lon="5.61031">
        <ele>1663.7</ele>
        <time>2015-10-15T10:03:59Z</time>
      </trkpt>
      <trkpt lat="44.46875" lon="5.6103">
        <ele>1662.74</ele>
        <time>2015-10-15T10:04:23Z</time>
      </trkpt>
      <trkpt lat="44.46878" lon="5.61033">
        <ele>1662.74</ele>
        <time>2015-10-15T10:04:38Z</time>
      </trkpt>
      <trkpt lat="44.46881" lon="5.61035">
        <ele>1662.26</ele>
        <time>2015-10-15T10:04:41Z</time>
      </trkpt>
      <trkpt lat="44.46886" lon="5.61048">
        <ele>1659.85</ele>
        <time>2015-10-15T10:04:58Z</time>
      </trkpt>
      <trkpt lat="44.46892" lon="5.61056">
        <ele>1656.49</ele>
        <time>2015-10-15T10:05:09Z</time>
      </trkpt>
      <trkpt lat="44.46896" lon="5.61054">
        <ele>1654.57</ele>
        <time>2015-10-15T10:05:14Z</time>
      </trkpt>
      <trkpt lat="44.46899" lon="5.61053">
        <ele>1654.57</ele>
        <time>2015-10-15T10:05:17Z</time>
      </trkpt>
      <trkpt lat="44.46907" lon="5.61054">
        <ele>1652.16</ele>
        <time>2015-10-15T10:05:31Z</time>
      </trkpt>
      <trkpt lat="44.46907" lon="5.61062">
        <ele>1648.8</ele>
        <time>2015-10-15T10:05:43Z</time>
      </trkpt>
      <trkpt lat="44.46912" lon="5.61072">
        <ele>1646.4</ele>
        <time>2015-10-15T10:05:56Z</time>
      </trkpt>
      <trkpt lat="44.46914" lon="5.61072">
        <ele>1647.84</ele>
        <time>2015-10-15T10:06:01Z</time>
      </trkpt>
      <trkpt lat="44.4692" lon="5.61086">
        <ele>1645.43</ele>
        <time>2015-10-15T10:06:16Z</time>
      </trkpt>
      <trkpt lat="44.46921" lon="5.61095">
        <ele>1642.55</ele>
        <time>2015-10-15T10:06:29Z</time>
      </trkpt>
      <trkpt lat="44.46925" lon="5.61099">
        <ele>1640.63</ele>
        <time>2015-10-15T10:06:42Z</time>
      </trkpt>
      <trkpt lat="44.46926" lon="5.611">
        <ele>1639.67</ele>
        <time>2015-10-15T10:06:55Z</time>
      </trkpt>
      <trkpt lat="44.46926" lon="5.61102">
        <ele>1639.67</ele>
        <time>2015-10-15T10:07:25Z</time>
      </trkpt>
      <trkpt lat="44.46932" lon="5.61113">
        <ele>1638.22</ele>
        <time>2015-10-15T10:07:40Z</time>
      </trkpt>
      <trkpt lat="44.46937" lon="5.61125">
        <ele>1635.34</ele>
        <time>2015-10-15T10:07:51Z</time>
      </trkpt>
      <trkpt lat="44.46943" lon="5.6113">
        <ele>1631.49</ele>
        <time>2015-10-15T10:08:00Z</time>
      </trkpt>
      <trkpt lat="44.46944" lon="5.6113">
        <ele>1632.46</ele>
        <time>2015-10-15T10:08:01Z</time>
      </trkpt>
      <trkpt lat="44.4695" lon="5.61142">
        <ele>1630.05</ele>
        <time>2015-10-15T10:08:15Z</time>
      </trkpt>
      <trkpt lat="44.46958" lon="5.61153">
        <ele>1627.65</ele>
        <time>2015-10-15T10:08:28Z</time>
      </trkpt>
      <trkpt lat="44.46965" lon="5.61163">
        <ele>1625.25</ele>
        <time>2015-10-15T10:08:40Z</time>
      </trkpt>
      <trkpt lat="44.46969" lon="5.61173">
        <ele>1622.84</ele>
        <time>2015-10-15T10:08:53Z</time>
      </trkpt>
      <trkpt lat="44.4697" lon="5.61175">
        <ele>1622.36</ele>
        <time>2015-10-15T10:08:55Z</time>
      </trkpt>
      <trkpt lat="44.46974" lon="5.61178">
        <ele>1621.88</ele>
        <time>2015-10-15T10:09:00Z</time>
      </trkpt>
      <trkpt lat="44.46978" lon="5.61183">
        <ele>1620.44</ele>
        <time>2015-10-15T10:09:05Z</time>
      </trkpt>
      <trkpt lat="44.46978" lon="5.61183">
        <ele>1619.96</ele>
        <time>2015-10-15T10:09:06Z</time>
      </trkpt>
      <trkpt lat="44.46985" lon="5.61183">
        <ele>1617.07</ele>
        <time>2015-10-15T10:09:16Z</time>
      </trkpt>
      <trkpt lat="44.4699" lon="5.61187">
        <ele>1616.11</ele>
        <time>2015-10-15T10:09:29Z</time>
      </trkpt>
      <trkpt lat="44.4699" lon="5.61189">
        <ele>1617.07</ele>
        <time>2015-10-15T10:09:31Z</time>
      </trkpt>
      <trkpt lat="44.46994" lon="5.61192">
        <ele>1614.67</ele>
        <time>2015-10-15T10:09:37Z</time>
      </trkpt>
      <trkpt lat="44.46998" lon="5.61191">
        <ele>1613.23</ele>
        <time>2015-10-15T10:09:41Z</time>
      </trkpt>
      <trkpt lat="44.47001" lon="5.6119">
        <ele>1612.27</ele>
        <time>2015-10-15T10:09:44Z</time>
      </trkpt>
      <trkpt lat="44.47002" lon="5.61191">
        <ele>1611.79</ele>
        <time>2015-10-15T10:09:59Z</time>
      </trkpt>
      <trkpt lat="44.47004" lon="5.61186">
        <ele>1609.86</ele>
        <time>2015-10-15T10:10:11Z</time>
      </trkpt>
      <trkpt lat="44.47007" lon="5.61177">
        <ele>1608.9</ele>
        <time>2015-10-15T10:10:19Z</time>
      </trkpt>
      <trkpt lat="44.47009" lon="5.61175">
        <ele>1608.9</ele>
        <time>2015-10-15T10:10:21Z</time>
      </trkpt>
      <trkpt lat="44.47013" lon="5.61171">
        <ele>1606.98</ele>
        <time>2015-10-15T10:10:27Z</time>
      </trkpt>
      <trkpt lat="44.4702" lon="5.61162">
        <ele>1605.06</ele>
        <time>2015-10-15T10:10:40Z</time>
      </trkpt>
      <trkpt lat="44.47026" lon="5.61155">
        <ele>1602.66</ele>
        <time>2015-10-15T10:10:54Z</time>
      </trkpt>
      <trkpt lat="44.47028" lon="5.61153">
        <ele>1601.21</ele>
        <time>2015-10-15T10:10:57Z</time>
      </trkpt>
      <trkpt lat="44.47028" lon="5.61152">
        <ele>1600.73</ele>
        <time>2015-10-15T10:10:58Z</time>
      </trkpt>
      <trkpt lat="44.4703" lon="5.61149">
        <ele>1600.25</ele>
        <time>2015-10-15T10:11:01Z</time>
      </trkpt>
      <trkpt lat="44.47036" lon="5.61144">
        <ele>1598.81</ele>
        <time>2015-10-15T10:11:14Z</time>
      </trkpt>
      <trkpt lat="44.4704" lon="5.61142">
        <ele>1596.89</ele>
        <time>2015-10-15T10:11:21Z</time>
      </trkpt>
      <trkpt lat="44.47048" lon="5.61137">
        <ele>1594</ele>
        <time>2015-10-15T10:11:34Z</time>
      </trkpt>
      <trkpt lat="44.47052" lon="5.61135">
        <ele>1591.6</ele>
        <time>2015-10-15T10:11:42Z</time>
      </trkpt>
      <trkpt lat="44.47049" lon="5.61135">
        <ele>1592.08</ele>
        <time>2015-10-15T10:11:48Z</time>
      </trkpt>
      <trkpt lat="44.4705" lon="5.61147">
        <ele>1589.2</ele>
        <time>2015-10-15T10:12:04Z</time>
      </trkpt>
      <trkpt lat="44.47054" lon="5.61157">
        <ele>1586.31</ele>
        <time>2015-10-15T10:12:22Z</time>
      </trkpt>
      <trkpt lat="44.4706" lon="5.61169">
        <ele>1582.95</ele>
        <time>2015-10-15T10:12:37Z</time>
      </trkpt>
      <trkpt lat="44.47062" lon="5.6118">
        <ele>1581.51</ele>
        <time>2015-10-15T10:12:51Z</time>
      </trkpt>
      <trkpt lat="44.47062" lon="5.61193">
        <ele>1578.14</ele>
        <time>2015-10-15T10:13:07Z</time>
      </trkpt>
      <trkpt lat="44.47064" lon="5.61196">
        <ele>1578.62</ele>
        <time>2015-10-15T10:13:28Z</time>
      </trkpt>
      <trkpt lat="44.47067" lon="5.61202">
        <ele>1575.74</ele>
        <time>2015-10-15T10:13:38Z</time>
      </trkpt>
      <trkpt lat="44.4707" lon="5.61214">
        <ele>1573.33</ele>
        <time>2015-10-15T10:13:53Z</time>
      </trkpt>
      <trkpt lat="44.4707" lon="5.61219">
        <ele>1571.41</ele>
        <time>2015-10-15T10:13:58Z</time>
      </trkpt>
      <trkpt lat="44.47072" lon="5.61232">
        <ele>1568.05</ele>
        <time>2015-10-15T10:14:10Z</time>
      </trkpt>
      <trkpt lat="44.47075" lon="5.6124">
        <ele>1565.64</ele>
        <time>2015-10-15T10:14:19Z</time>
      </trkpt>
      <trkpt lat="44.47074" lon="5.61253">
        <ele>1562.28</ele>
        <time>2015-10-15T10:14:32Z</time>
      </trkpt>
      <trkpt lat="44.47075" lon="5.61252">
        <ele>1560.84</ele>
        <time>2015-10-15T10:14:45Z</time>
      </trkpt>
      <trkpt lat="44.4707" lon="5.61239">
        <ele>1559.88</ele>
        <time>2015-10-15T10:15:12Z</time>
      </trkpt>
      <trkpt lat="44.47075" lon="5.61252">
        <ele>1560.84</ele>
        <time>2015-10-15T10:15:44Z</time>
      </trkpt>
      <trkpt lat="44.47085" lon="5.6126">
        <ele>1561.8</ele>
        <time>2015-10-15T10:15:58Z</time>
      </trkpt>
      <trkpt lat="44.47094" lon="5.61266">
        <ele>1560.84</ele>
        <time>2015-10-15T10:16:09Z</time>
      </trkpt>
      <trkpt lat="44.47096" lon="5.61276">
        <ele>1559.4</ele>
        <time>2015-10-15T10:16:19Z</time>
      </trkpt>
      <trkpt lat="44.47098" lon="5.61285">
        <ele>1558.43</ele>
        <time>2015-10-15T10:16:26Z</time>
      </trkpt>
      <trkpt lat="44.471" lon="5.61292">
        <ele>1557.47</ele>
        <time>2015-10-15T10:16:40Z</time>
      </trkpt>
      <trkpt lat="44.471" lon="5.61292">
        <ele>1557.47</ele>
        <time>2015-10-15T10:16:57Z</time>
      </trkpt>
      <trkpt lat="44.47101" lon="5.61293">
        <ele>1552.19</ele>
        <time>2015-10-15T10:17:14Z</time>
      </trkpt>
      <trkpt lat="44.47102" lon="5.61293">
        <ele>1552.67</ele>
        <time>2015-10-15T10:17:15Z</time>
      </trkpt>
      <trkpt lat="44.47102" lon="5.61289">
        <ele>1555.07</ele>
        <time>2015-10-15T10:17:28Z</time>
      </trkpt>
      <trkpt lat="44.47099" lon="5.6129">
        <ele>1555.55</ele>
        <time>2015-10-15T10:17:40Z</time>
      </trkpt>
      <trkpt lat="44.47099" lon="5.61292">
        <ele>1556.03</ele>
        <time>2015-10-15T10:17:41Z</time>
      </trkpt>
      <trkpt lat="44.47094" lon="5.61296">
        <ele>1552.19</ele>
        <time>2015-10-15T10:17:53Z</time>
      </trkpt>
      <trkpt lat="44.47091" lon="5.61292">
        <ele>1549.3</ele>
        <time>2015-10-15T10:18:00Z</time>
      </trkpt>
      <trkpt lat="44.47088" lon="5.6129">
        <ele>1548.34</ele>
        <time>2015-10-15T10:18:14Z</time>
      </trkpt>
      <trkpt lat="44.47082" lon="5.61286">
        <ele>1547.38</ele>
        <time>2015-10-15T10:18:28Z</time>
      </trkpt>
      <trkpt lat="44.47076" lon="5.61282">
        <ele>1545.46</ele>
        <time>2015-10-15T10:18:51Z</time>
      </trkpt>
      <trkpt lat="44.47073" lon="5.61281">
        <ele>1544.5</ele>
        <time>2015-10-15T10:18:58Z</time>
      </trkpt>
      <trkpt lat="44.47061" lon="5.61278">
        <ele>1541.61</ele>
        <time>2015-10-15T10:19:14Z</time>
      </trkpt>
      <trkpt lat="44.47055" lon="5.61277">
        <ele>1539.21</ele>
        <time>2015-10-15T10:19:29Z</time>
      </trkpt>
      <trkpt lat="44.47048" lon="5.6128">
        <ele>1535.84</ele>
        <time>2015-10-15T10:19:46Z</time>
      </trkpt>
      <trkpt lat="44.47045" lon="5.61282">
        <ele>1534.4</ele>
        <time>2015-10-15T10:20:01Z</time>
      </trkpt>
      <trkpt lat="44.47038" lon="5.6129">
        <ele>1531.52</ele>
        <time>2015-10-15T10:20:15Z</time>
      </trkpt>
      <trkpt lat="44.47032" lon="5.61297">
        <ele>1528.15</ele>
        <time>2015-10-15T10:20:30Z</time>
      </trkpt>
      <trkpt lat="44.47025" lon="5.61302">
        <ele>1526.71</ele>
        <time>2015-10-15T10:20:46Z</time>
      </trkpt>
      <trkpt lat="44.47026" lon="5.61305">
        <ele>1527.67</ele>
        <time>2015-10-15T10:21:08Z</time>
      </trkpt>
      <trkpt lat="44.47024" lon="5.61303">
        <ele>1527.67</ele>
        <time>2015-10-15T10:21:30Z</time>
      </trkpt>
      <trkpt lat="44.47022" lon="5.61302">
        <ele>1528.15</ele>
        <time>2015-10-15T10:21:33Z</time>
      </trkpt>
      <trkpt lat="44.47008" lon="5.61301">
        <ele>1527.19</ele>
        <time>2015-10-15T10:21:47Z</time>
      </trkpt>
      <trkpt lat="44.46995" lon="5.61301">
        <ele>1525.27</ele>
        <time>2015-10-15T10:22:03Z</time>
      </trkpt>
      <trkpt lat="44.46986" lon="5.61303">
        <ele>1523.35</ele>
        <time>2015-10-15T10:22:17Z</time>
      </trkpt>
      <trkpt lat="44.46982" lon="5.61304">
        <ele>1520.94</ele>
        <time>2015-10-15T10:22:30Z</time>
      </trkpt>
      <trkpt lat="44.46977" lon="5.61305">
        <ele>1518.54</ele>
        <time>2015-10-15T10:22:42Z</time>
      </trkpt>
      <trkpt lat="44.46967" lon="5.613">
        <ele>1518.54</ele>
        <time>2015-10-15T10:22:59Z</time>
      </trkpt>
      <trkpt lat="44.46957" lon="5.61294">
        <ele>1519.02</ele>
        <time>2015-10-15T10:23:15Z</time>
      </trkpt>
      <trkpt lat="44.46945" lon="5.61296">
        <ele>1516.14</ele>
        <time>2015-10-15T10:23:30Z</time>
      </trkpt>
      <trkpt lat="44.46938" lon="5.61299">
        <ele>1512.77</ele>
        <time>2015-10-15T10:23:43Z</time>
      </trkpt>
      <trkpt lat="44.46931" lon="5.61297">
        <ele>1512.77</ele>
        <time>2015-10-15T10:23:58Z</time>
      </trkpt>
      <trkpt lat="44.46922" lon="5.61295">
        <ele>1512.29</ele>
        <time>2015-10-15T10:24:14Z</time>
      </trkpt>
      <trkpt lat="44.46914" lon="5.61293">
        <ele>1512.77</ele>
        <time>2015-10-15T10:24:29Z</time>
      </trkpt>
      <trkpt lat="44.46905" lon="5.61291">
        <ele>1514.21</ele>
        <time>2015-10-15T10:24:44Z</time>
      </trkpt>
      <trkpt lat="44.46897" lon="5.61283">
        <ele>1513.73</ele>
        <time>2015-10-15T10:24:58Z</time>
      </trkpt>
      <trkpt lat="44.46891" lon="5.61288">
        <ele>1513.73</ele>
        <time>2015-10-15T10:25:15Z</time>
      </trkpt>
      <trkpt lat="44.46884" lon="5.61283">
        <ele>1513.73</ele>
        <time>2015-10-15T10:25:28Z</time>
      </trkpt>
      <trkpt lat="44.46882" lon="5.61282">
        <ele>1513.73</ele>
        <time>2015-10-15T10:25:56Z</time>
      </trkpt>
      <trkpt lat="44.46878" lon="5.61279">
        <ele>1513.25</ele>
        <time>2015-10-15T10:26:11Z</time>
      </trkpt>
      <trkpt lat="44.46875" lon="5.6128">
        <ele>1512.77</ele>
        <time>2015-10-15T10:26:28Z</time>
      </trkpt>
      <trkpt lat="44.4687" lon="5.61278">
        <ele>1513.25</ele>
        <time>2015-10-15T10:26:49Z</time>
      </trkpt>
      <trkpt lat="44.4687" lon="5.61277">
        <ele>1512.77</ele>
        <time>2015-10-15T10:27:08Z</time>
      </trkpt>
      <trkpt lat="44.46867" lon="5.6127">
        <ele>1516.14</ele>
        <time>2015-10-15T10:27:23Z</time>
      </trkpt>
      <trkpt lat="44.46868" lon="5.61265">
        <ele>1517.1</ele>
        <time>2015-10-15T10:27:37Z</time>
      </trkpt>
      <trkpt lat="44.4687" lon="5.61266">
        <ele>1517.58</ele>
        <time>2015-10-15T10:27:58Z</time>
      </trkpt>
      <trkpt lat="44.46868" lon="5.61269">
        <ele>1517.1</ele>
        <time>2015-10-15T10:28:18Z</time>
      </trkpt>
      <trkpt lat="44.46868" lon="5.61267">
        <ele>1517.1</ele>
        <time>2015-10-15T10:28:38Z</time>
      </trkpt>
      <trkpt lat="44.4687" lon="5.6127">
        <ele>1517.1</ele>
        <time>2015-10-15T10:29:07Z</time>
      </trkpt>
      <trkpt lat="44.46865" lon="5.6127">
        <ele>1516.62</ele>
        <time>2015-10-15T10:29:31Z</time>
      </trkpt>
      <trkpt lat="44.4686" lon="5.61271">
        <ele>1517.1</ele>
        <time>2015-10-15T10:29:54Z</time>
      </trkpt>
      <trkpt lat="44.4686" lon="5.61275">
        <ele>1517.1</ele>
        <time>2015-10-15T10:30:15Z</time>
      </trkpt>
      <trkpt lat="44.46864" lon="5.61274">
        <ele>1517.58</ele>
        <time>2015-10-15T10:30:36Z</time>
      </trkpt>
      <trkpt lat="44.46862" lon="5.61274">
        <ele>1517.1</ele>
        <time>2015-10-15T10:30:58Z</time>
      </trkpt>
      <trkpt lat="44.46865" lon="5.6127">
        <ele>1517.1</ele>
        <time>2015-10-15T10:31:30Z</time>
      </trkpt>
      <trkpt lat="44.46866" lon="5.61268">
        <ele>1517.1</ele>
        <time>2015-10-15T10:32:01Z</time>
      </trkpt>
      <trkpt lat="44.46864" lon="5.61268">
        <ele>1516.62</ele>
        <time>2015-10-15T10:32:32Z</time>
      </trkpt>
      <trkpt lat="44.46864" lon="5.61268">
        <ele>1515.66</ele>
        <time>2015-10-15T10:32:34Z</time>
      </trkpt>
      <trkpt lat="44.46866" lon="5.61252">
        <ele>1516.14</ele>
        <time>2015-10-15T10:33:03Z</time>
      </trkpt>
      <trkpt lat="44.46869" lon="5.61264">
        <ele>1515.66</ele>
        <time>2015-10-15T10:33:33Z</time>
      </trkpt>
      <trkpt lat="44.46864" lon="5.61267">
        <ele>1516.14</ele>
        <time>2015-10-15T10:33:57Z</time>
      </trkpt>
      <trkpt lat="44.46866" lon="5.61267">
        <ele>1515.66</ele>
        <time>2015-10-15T10:34:14Z</time>
      </trkpt>
      <trkpt lat="44.46864" lon="5.61263">
        <ele>1516.14</ele>
        <time>2015-10-15T10:34:46Z</time>
      </trkpt>
      <trkpt lat="44.46863" lon="5.61259">
        <ele>1516.62</ele>
        <time>2015-10-15T10:35:25Z</time>
      </trkpt>
      <trkpt lat="44.46864" lon="5.61266">
        <ele>1516.62</ele>
        <time>2015-10-15T10:35:55Z</time>
      </trkpt>
      <trkpt lat="44.46865" lon="5.61268">
        <ele>1516.62</ele>
        <time>2015-10-15T10:36:23Z</time>
      </trkpt>
      <trkpt lat="44.46863" lon="5.61266">
        <ele>1517.1</ele>
        <time>2015-10-15T10:36:48Z</time>
      </trkpt>
      <trkpt lat="44.46865" lon="5.61266">
        <ele>1516.14</ele>
        <time>2015-10-15T10:37:18Z</time>
      </trkpt>
      <trkpt lat="44.46862" lon="5.61269">
        <ele>1517.1</ele>
        <time>2015-10-15T10:37:50Z</time>
      </trkpt>
      <trkpt lat="44.46863" lon="5.61268">
        <ele>1516.62</ele>
        <time>2015-10-15T10:38:14Z</time>
      </trkpt>
      <trkpt lat="44.46863" lon="5.61269">
        <ele>1516.14</ele>
        <time>2015-10-15T10:38:22Z</time>
      </trkpt>
      <trkpt lat="44.46865" lon="5.61264">
        <ele>1515.66</ele>
        <time>2015-10-15T10:38:49Z</time>
      </trkpt>
      <trkpt lat="44.46862" lon="5.61275">
        <ele>1514.69</ele>
        <time>2015-10-15T10:39:13Z</time>
      </trkpt>
      <trkpt lat="44.46855" lon="5.61283">
        <ele>1514.69</ele>
        <time>2015-10-15T10:39:38Z</time>
      </trkpt>
      <trkpt lat="44.46866" lon="5.61275">
        <ele>1515.18</ele>
        <time>2015-10-15T10:40:04Z</time>
      </trkpt>
      <trkpt lat="44.46863" lon="5.61277">
        <ele>1515.66</ele>
        <time>2015-10-15T10:40:32Z</time>
      </trkpt>
      <trkpt lat="44.46869" lon="5.61257">
        <ele>1515.66</ele>
        <time>2015-10-15T10:41:01Z</time>
      </trkpt>
      <trkpt lat="44.46865" lon="5.61269">
        <ele>1516.14</ele>
        <time>2015-10-15T10:41:27Z</time>
      </trkpt>
      <trkpt lat="44.46867" lon="5.61265">
        <ele>1516.14</ele>
        <time>2015-10-15T10:41:58Z</time>
      </trkpt>
      <trkpt lat="44.46871" lon="5.61262">
        <ele>1516.14</ele>
        <time>2015-10-15T10:42:25Z</time>
      </trkpt>
      <trkpt lat="44.4687" lon="5.61258">
        <ele>1516.14</ele>
        <time>2015-10-15T10:42:50Z</time>
      </trkpt>
      <trkpt lat="44.46869" lon="5.61258">
        <ele>1515.66</ele>
        <time>2015-10-15T10:43:18Z</time>
      </trkpt>
      <trkpt lat="44.4687" lon="5.61259">
        <ele>1515.18</ele>
        <time>2015-10-15T10:43:43Z</time>
      </trkpt>
      <trkpt lat="44.46865" lon="5.61257">
        <ele>1514.69</ele>
        <time>2015-10-15T10:44:04Z</time>
      </trkpt>
      <trkpt lat="44.46868" lon="5.61257">
        <ele>1512.77</ele>
        <time>2015-10-15T10:44:28Z</time>
      </trkpt>
      <trkpt lat="44.46871" lon="5.61256">
        <ele>1514.21</ele>
        <time>2015-10-15T10:44:56Z</time>
      </trkpt>
      <trkpt lat="44.46866" lon="5.61262">
        <ele>1516.62</ele>
        <time>2015-10-15T10:45:28Z</time>
      </trkpt>
      <trkpt lat="44.46866" lon="5.61263">
        <ele>1517.58</ele>
        <time>2015-10-15T10:45:54Z</time>
      </trkpt>
      <trkpt lat="44.46865" lon="5.61264">
        <ele>1517.1</ele>
        <time>2015-10-15T10:46:15Z</time>
      </trkpt>
      <trkpt lat="44.46866" lon="5.61264">
        <ele>1517.58</ele>
        <time>2015-10-15T10:46:45Z</time>
      </trkpt>
      <trkpt lat="44.46871" lon="5.61258">
        <ele>1517.1</ele>
        <time>2015-10-15T10:47:09Z</time>
      </trkpt>
      <trkpt lat="44.46865" lon="5.61257">
        <ele>1517.1</ele>
        <time>2015-10-15T10:47:37Z</time>
      </trkpt>
      <trkpt lat="44.46866" lon="5.61258">
        <ele>1516.62</ele>
        <time>2015-10-15T10:48:01Z</time>
      </trkpt>
      <trkpt lat="44.46865" lon="5.61264">
        <ele>1517.58</ele>
        <time>2015-10-15T10:48:27Z</time>
      </trkpt>
      <trkpt lat="44.46874" lon="5.6126">
        <ele>1517.58</ele>
        <time>2015-10-15T10:48:51Z</time>
      </trkpt>
      <trkpt lat="44.46863" lon="5.6127">
        <ele>1517.58</ele>
        <time>2015-10-15T10:49:17Z</time>
      </trkpt>
      <trkpt lat="44.46856" lon="5.61267">
        <ele>1517.58</ele>
        <time>2015-10-15T10:49:29Z</time>
      </trkpt>
      <trkpt lat="44.4686" lon="5.61263">
        <ele>1517.58</ele>
        <time>2015-10-15T10:49:57Z</time>
      </trkpt>
      <trkpt lat="44.46864" lon="5.61271">
        <ele>1517.1</ele>
        <time>2015-10-15T10:50:23Z</time>
      </trkpt>
      <trkpt lat="44.46865" lon="5.61269">
        <ele>1517.1</ele>
        <time>2015-10-15T10:50:58Z</time>
      </trkpt>
      <trkpt lat="44.46863" lon="5.61274">
        <ele>1517.1</ele>
        <time>2015-10-15T10:51:34Z</time>
      </trkpt>
      <trkpt lat="44.46862" lon="5.61274">
        <ele>1517.1</ele>
        <time>2015-10-15T10:51:57Z</time>
      </trkpt>
      <trkpt lat="44.4686" lon="5.61274">
        <ele>1517.58</ele>
        <time>2015-10-15T10:52:20Z</time>
      </trkpt>
      <trkpt lat="44.46857" lon="5.61268">
        <ele>1517.1</ele>
        <time>2015-10-15T10:52:51Z</time>
      </trkpt>
      <trkpt lat="44.46858" lon="5.61277">
        <ele>1517.1</ele>
        <time>2015-10-15T10:53:19Z</time>
      </trkpt>
      <trkpt lat="44.46863" lon="5.6127">
        <ele>1517.1</ele>
        <time>2015-10-15T10:53:42Z</time>
      </trkpt>
      <trkpt lat="44.46864" lon="5.61267">
        <ele>1517.1</ele>
        <time>2015-10-15T10:54:08Z</time>
      </trkpt>
      <trkpt lat="44.46862" lon="5.6127">
        <ele>1517.1</ele>
        <time>2015-10-15T10:54:34Z</time>
      </trkpt>
      <trkpt lat="44.46861" lon="5.61275">
        <ele>1516.62</ele>
        <time>2015-10-15T10:55:04Z</time>
      </trkpt>
      <trkpt lat="44.46859" lon="5.61275">
        <ele>1517.1</ele>
        <time>2015-10-15T10:55:35Z</time>
      </trkpt>
      <trkpt lat="44.46861" lon="5.61271">
        <ele>1517.1</ele>
        <time>2015-10-15T10:56:07Z</time>
      </trkpt>
      <trkpt lat="44.46862" lon="5.61272">
        <ele>1517.58</ele>
        <time>2015-10-15T10:56:41Z</time>
      </trkpt>
      <trkpt lat="44.46862" lon="5.61272">
        <ele>1517.58</ele>
        <time>2015-10-15T10:57:13Z</time>
      </trkpt>
      <trkpt lat="44.46864" lon="5.61274">
        <ele>1517.58</ele>
        <time>2015-10-15T10:57:41Z</time>
      </trkpt>
      <trkpt lat="44.46856" lon="5.61276">
        <ele>1517.58</ele>
        <time>2015-10-15T10:58:05Z</time>
      </trkpt>
      <trkpt lat="44.46861" lon="5.61273">
        <ele>1517.58</ele>
        <time>2015-10-15T10:58:32Z</time>
      </trkpt>
      <trkpt lat="44.46865" lon="5.61276">
        <ele>1517.1</ele>
        <time>2015-10-15T10:58:59Z</time>
      </trkpt>
      <trkpt lat="44.46862" lon="5.61276">
        <ele>1517.1</ele>
        <time>2015-10-15T10:59:29Z</time>
      </trkpt>
      <trkpt lat="44.46865" lon="5.61274">
        <ele>1518.06</ele>
        <time>2015-10-15T10:59:59Z</time>
      </trkpt>
      <trkpt lat="44.46865" lon="5.61269">
        <ele>1516.62</ele>
        <time>2015-10-15T11:00:26Z</time>
      </trkpt>
      <trkpt lat="44.46864" lon="5.61269">
        <ele>1517.1</ele>
        <time>2015-10-15T11:00:57Z</time>
      </trkpt>
      <trkpt lat="44.46864" lon="5.61269">
        <ele>1517.1</ele>
        <time>2015-10-15T11:01:25Z</time>
      </trkpt>
      <trkpt lat="44.46867" lon="5.61266">
        <ele>1517.1</ele>
        <time>2015-10-15T11:01:52Z</time>
      </trkpt>
      <trkpt lat="44.46869" lon="5.61267">
        <ele>1517.1</ele>
        <time>2015-10-15T11:02:12Z</time>
      </trkpt>
      <trkpt lat="44.46868" lon="5.61272">
        <ele>1516.62</ele>
        <time>2015-10-15T11:02:35Z</time>
      </trkpt>
      <trkpt lat="44.46873" lon="5.61272">
        <ele>1517.58</ele>
        <time>2015-10-15T11:02:45Z</time>
      </trkpt>
      <trkpt lat="44.46868" lon="5.61273">
        <ele>1517.1</ele>
        <time>2015-10-15T11:03:09Z</time>
      </trkpt>
      <trkpt lat="44.46865" lon="5.61266">
        <ele>1517.58</ele>
        <time>2015-10-15T11:03:34Z</time>
      </trkpt>
      <trkpt lat="44.46863" lon="5.61264">
        <ele>1517.1</ele>
        <time>2015-10-15T11:04:06Z</time>
      </trkpt>
      <trkpt lat="44.4686" lon="5.61267">
        <ele>1517.58</ele>
        <time>2015-10-15T11:04:39Z</time>
      </trkpt>
      <trkpt lat="44.46854" lon="5.61261">
        <ele>1517.58</ele>
        <time>2015-10-15T11:05:07Z</time>
      </trkpt>
      <trkpt lat="44.46849" lon="5.61258">
        <ele>1517.58</ele>
        <time>2015-10-15T11:05:37Z</time>
      </trkpt>
      <trkpt lat="44.46862" lon="5.6128">
        <ele>1517.58</ele>
        <time>2015-10-15T11:06:06Z</time>
      </trkpt>
      <trkpt lat="44.46859" lon="5.61276">
        <ele>1518.06</ele>
        <time>2015-10-15T11:06:32Z</time>
      </trkpt>
      <trkpt lat="44.46864" lon="5.61268">
        <ele>1517.58</ele>
        <time>2015-10-15T11:07:01Z</time>
      </trkpt>
      <trkpt lat="44.46861" lon="5.61272">
        <ele>1517.1</ele>
        <time>2015-10-15T11:07:31Z</time>
      </trkpt>
      <trkpt lat="44.46867" lon="5.61274">
        <ele>1517.1</ele>
        <time>2015-10-15T11:07:50Z</time>
      </trkpt>
      <trkpt lat="44.46866" lon="5.61266">
        <ele>1517.58</ele>
        <time>2015-10-15T11:08:18Z</time>
      </trkpt>
      <trkpt lat="44.46861" lon="5.61274">
        <ele>1517.1</ele>
        <time>2015-10-15T11:08:48Z</time>
      </trkpt>
      <trkpt lat="44.46867" lon="5.61284">
        <ele>1517.58</ele>
        <time>2015-10-15T11:09:06Z</time>
      </trkpt>
      <trkpt lat="44.46862" lon="5.61279">
        <ele>1517.1</ele>
        <time>2015-10-15T11:09:26Z</time>
      </trkpt>
      <trkpt lat="44.46861" lon="5.61269">
        <ele>1517.58</ele>
        <time>2015-10-15T11:09:50Z</time>
      </trkpt>
      <trkpt lat="44.46864" lon="5.61273">
        <ele>1517.58</ele>
        <time>2015-10-15T11:10:23Z</time>
      </trkpt>
      <trkpt lat="44.46867" lon="5.61272">
        <ele>1517.1</ele>
        <time>2015-10-15T11:11:01Z</time>
      </trkpt>
      <trkpt lat="44.46863" lon="5.61275">
        <ele>1517.1</ele>
        <time>2015-10-15T11:11:33Z</time>
      </trkpt>
      <trkpt lat="44.46864" lon="5.6127">
        <ele>1516.62</ele>
        <time>2015-10-15T11:12:01Z</time>
      </trkpt>
      <trkpt lat="44.46866" lon="5.61271">
        <ele>1517.1</ele>
        <time>2015-10-15T11:12:22Z</time>
      </trkpt>
      <trkpt lat="44.46867" lon="5.61271">
        <ele>1518.54</ele>
        <time>2015-10-15T11:12:50Z</time>
      </trkpt>
      <trkpt lat="44.46868" lon="5.6127">
        <ele>1518.54</ele>
        <time>2015-10-15T11:13:11Z</time>
      </trkpt>
      <trkpt lat="44.46867" lon="5.61272">
        <ele>1518.54</ele>
        <time>2015-10-15T11:13:33Z</time>
      </trkpt>
      <trkpt lat="44.46869" lon="5.6127">
        <ele>1518.06</ele>
        <time>2015-10-15T11:13:52Z</time>
      </trkpt>
      <trkpt lat="44.4687" lon="5.61266">
        <ele>1518.54</ele>
        <time>2015-10-15T11:14:15Z</time>
      </trkpt>
      <trkpt lat="44.46869" lon="5.61267">
        <ele>1518.06</ele>
        <time>2015-10-15T11:14:37Z</time>
      </trkpt>
      <trkpt lat="44.46865" lon="5.6127">
        <ele>1517.58</ele>
        <time>2015-10-15T11:15:04Z</time>
      </trkpt>
      <trkpt lat="44.46863" lon="5.6127">
        <ele>1518.54</ele>
        <time>2015-10-15T11:15:27Z</time>
      </trkpt>
      <trkpt lat="44.46864" lon="5.61273">
        <ele>1518.54</ele>
        <time>2015-10-15T11:15:49Z</time>
      </trkpt>
      <trkpt lat="44.46864" lon="5.61273">
        <ele>1518.54</ele>
        <time>2015-10-15T11:16:24Z</time>
      </trkpt>
      <trkpt lat="44.46865" lon="5.61269">
        <ele>1518.54</ele>
        <time>2015-10-15T11:16:42Z</time>
      </trkpt>
      <trkpt lat="44.46866" lon="5.61265">
        <ele>1519.02</ele>
        <time>2015-10-15T11:17:00Z</time>
      </trkpt>
      <trkpt lat="44.46865" lon="5.61265">
        <ele>1518.54</ele>
        <time>2015-10-15T11:17:18Z</time>
      </trkpt>
      <trkpt lat="44.46866" lon="5.61266">
        <ele>1518.54</ele>
        <time>2015-10-15T11:17:43Z</time>
      </trkpt>
      <trkpt lat="44.46867" lon="5.61267">
        <ele>1519.02</ele>
        <time>2015-10-15T11:18:10Z</time>
      </trkpt>
      <trkpt lat="44.46864" lon="5.61275">
        <ele>1518.54</ele>
        <time>2015-10-15T11:18:28Z</time>
      </trkpt>
      <trkpt lat="44.46862" lon="5.6128">
        <ele>1518.06</ele>
        <time>2015-10-15T11:19:08Z</time>
      </trkpt>
      <trkpt lat="44.46862" lon="5.61277">
        <ele>1518.54</ele>
        <time>2015-10-15T11:19:38Z</time>
      </trkpt>
      <trkpt lat="44.46863" lon="5.61278">
        <ele>1518.54</ele>
        <time>2015-10-15T11:20:11Z</time>
      </trkpt>
      <trkpt lat="44.46865" lon="5.61275">
        <ele>1518.54</ele>
        <time>2015-10-15T11:20:38Z</time>
      </trkpt>
      <trkpt lat="44.46863" lon="5.61277">
        <ele>1518.54</ele>
        <time>2015-10-15T11:21:09Z</time>
      </trkpt>
      <trkpt lat="44.46864" lon="5.61278">
        <ele>1518.54</ele>
        <time>2015-10-15T11:21:46Z</time>
      </trkpt>
      <trkpt lat="44.46861" lon="5.61277">
        <ele>1517.58</ele>
        <time>2015-10-15T11:22:15Z</time>
      </trkpt>
      <trkpt lat="44.46861" lon="5.61278">
        <ele>1517.58</ele>
        <time>2015-10-15T11:22:52Z</time>
      </trkpt>
      <trkpt lat="44.46862" lon="5.61275">
        <ele>1517.58</ele>
        <time>2015-10-15T11:23:24Z</time>
      </trkpt>
      <trkpt lat="44.46862" lon="5.61279">
        <ele>1517.58</ele>
        <time>2015-10-15T11:24:01Z</time>
      </trkpt>
      <trkpt lat="44.4686" lon="5.6128">
        <ele>1516.62</ele>
        <time>2015-10-15T11:24:27Z</time>
      </trkpt>
      <trkpt lat="44.4686" lon="5.6128">
        <ele>1516.14</ele>
        <time>2015-10-15T11:24:51Z</time>
      </trkpt>
      <trkpt lat="44.46859" lon="5.61275">
        <ele>1516.62</ele>
        <time>2015-10-15T11:25:12Z</time>
      </trkpt>
      <trkpt lat="44.46861" lon="5.6128">
        <ele>1516.14</ele>
        <time>2015-10-15T11:25:31Z</time>
      </trkpt>
      <trkpt lat="44.46861" lon="5.61281">
        <ele>1515.66</ele>
        <time>2015-10-15T11:25:58Z</time>
      </trkpt>
      <trkpt lat="44.46863" lon="5.61283">
        <ele>1514.69</ele>
        <time>2015-10-15T11:26:16Z</time>
      </trkpt>
      <trkpt lat="44.46862" lon="5.6128">
        <ele>1514.21</ele>
        <time>2015-10-15T11:26:32Z</time>
      </trkpt>
      <trkpt lat="44.46855" lon="5.61281">
        <ele>1513.73</ele>
        <time>2015-10-15T11:26:49Z</time>
      </trkpt>
      <trkpt lat="44.46847" lon="5.61285">
        <ele>1510.37</ele>
        <time>2015-10-15T11:27:01Z</time>
      </trkpt>
      <trkpt lat="44.4684" lon="5.61288">
        <ele>1507.97</ele>
        <time>2015-10-15T11:27:18Z</time>
      </trkpt>
      <trkpt lat="44.46833" lon="5.61289">
        <ele>1506.52</ele>
        <time>2015-10-15T11:27:32Z</time>
      </trkpt>
      <trkpt lat="44.46826" lon="5.61291">
        <ele>1505.08</ele>
        <time>2015-10-15T11:27:45Z</time>
      </trkpt>
      <trkpt lat="44.46819" lon="5.61289">
        <ele>1501.72</ele>
        <time>2015-10-15T11:28:00Z</time>
      </trkpt>
      <trkpt lat="44.46811" lon="5.61286">
        <ele>1501.72</ele>
        <time>2015-10-15T11:28:14Z</time>
      </trkpt>
      <trkpt lat="44.46799" lon="5.61287">
        <ele>1498.83</ele>
        <time>2015-10-15T11:28:29Z</time>
      </trkpt>
      <trkpt lat="44.46787" lon="5.61283">
        <ele>1496.43</ele>
        <time>2015-10-15T11:28:46Z</time>
      </trkpt>
      <trkpt lat="44.46779" lon="5.61279">
        <ele>1493.55</ele>
        <time>2015-10-15T11:29:00Z</time>
      </trkpt>
      <trkpt lat="44.46771" lon="5.61279">
        <ele>1490.18</ele>
        <time>2015-10-15T11:29:15Z</time>
      </trkpt>
      <trkpt lat="44.46762" lon="5.61279">
        <ele>1487.78</ele>
        <time>2015-10-15T11:29:27Z</time>
      </trkpt>
      <trkpt lat="44.46757" lon="5.6128">
        <ele>1486.82</ele>
        <time>2015-10-15T11:29:33Z</time>
      </trkpt>
      <trkpt lat="44.46742" lon="5.61269">
        <ele>1485.85</ele>
        <time>2015-10-15T11:29:49Z</time>
      </trkpt>
      <trkpt lat="44.46729" lon="5.61257">
        <ele>1485.85</ele>
        <time>2015-10-15T11:30:06Z</time>
      </trkpt>
      <trkpt lat="44.46721" lon="5.6125">
        <ele>1486.34</ele>
        <time>2015-10-15T11:30:16Z</time>
      </trkpt>
      <trkpt lat="44.4671" lon="5.61233">
        <ele>1485.85</ele>
        <time>2015-10-15T11:30:31Z</time>
      </trkpt>
      <trkpt lat="44.46699" lon="5.61225">
        <ele>1484.89</ele>
        <time>2015-10-15T11:30:45Z</time>
      </trkpt>
      <trkpt lat="44.46687" lon="5.61213">
        <ele>1484.89</ele>
        <time>2015-10-15T11:31:00Z</time>
      </trkpt>
      <trkpt lat="44.46681" lon="5.61206">
        <ele>1484.89</ele>
        <time>2015-10-15T11:31:14Z</time>
      </trkpt>
      <trkpt lat="44.46674" lon="5.61208">
        <ele>1481.53</ele>
        <time>2015-10-15T11:31:27Z</time>
      </trkpt>
      <trkpt lat="44.46671" lon="5.61208">
        <ele>1479.13</ele>
        <time>2015-10-15T11:31:35Z</time>
      </trkpt>
      <trkpt lat="44.46668" lon="5.6121">
        <ele>1477.68</ele>
        <time>2015-10-15T11:31:41Z</time>
      </trkpt>
      <trkpt lat="44.4666" lon="5.61206">
        <ele>1474.32</ele>
        <time>2015-10-15T11:31:57Z</time>
      </trkpt>
      <trkpt lat="44.46656" lon="5.61207">
        <ele>1472.88</ele>
        <time>2015-10-15T11:32:07Z</time>
      </trkpt>
      <trkpt lat="44.46652" lon="5.61203">
        <ele>1469.51</ele>
        <time>2015-10-15T11:32:17Z</time>
      </trkpt>
      <trkpt lat="44.4665" lon="5.61201">
        <ele>1468.55</ele>
        <time>2015-10-15T11:32:21Z</time>
      </trkpt>
      <trkpt lat="44.46648" lon="5.61199">
        <ele>1467.11</ele>
        <time>2015-10-15T11:32:25Z</time>
      </trkpt>
      <trkpt lat="44.46641" lon="5.61191">
        <ele>1463.74</ele>
        <time>2015-10-15T11:32:39Z</time>
      </trkpt>
      <trkpt lat="44.46635" lon="5.61196">
        <ele>1460.86</ele>
        <time>2015-10-15T11:32:51Z</time>
      </trkpt>
      <trkpt lat="44.46626" lon="5.61194">
        <ele>1457.98</ele>
        <time>2015-10-15T11:33:03Z</time>
      </trkpt>
      <trkpt lat="44.46616" lon="5.61196">
        <ele>1455.57</ele>
        <time>2015-10-15T11:33:18Z</time>
      </trkpt>
      <trkpt lat="44.46607" lon="5.61197">
        <ele>1452.21</ele>
        <time>2015-10-15T11:33:32Z</time>
      </trkpt>
      <trkpt lat="44.46594" lon="5.61196">
        <ele>1448.84</ele>
        <time>2015-10-15T11:33:46Z</time>
      </trkpt>
      <trkpt lat="44.46587" lon="5.61197">
        <ele>1445.96</ele>
        <time>2015-10-15T11:33:56Z</time>
      </trkpt>
      <trkpt lat="44.4658" lon="5.61198">
        <ele>1443.08</ele>
        <time>2015-10-15T11:34:07Z</time>
      </trkpt>
      <trkpt lat="44.46581" lon="5.61206">
        <ele>1440.19</ele>
        <time>2015-10-15T11:34:20Z</time>
      </trkpt>
      <trkpt lat="44.46574" lon="5.61208">
        <ele>1437.79</ele>
        <time>2015-10-15T11:34:26Z</time>
      </trkpt>
      <trkpt lat="44.46563" lon="5.61212">
        <ele>1434.42</ele>
        <time>2015-10-15T11:34:36Z</time>
      </trkpt>
      <trkpt lat="44.46551" lon="5.61218">
        <ele>1431.06</ele>
        <time>2015-10-15T11:34:49Z</time>
      </trkpt>
      <trkpt lat="44.46548" lon="5.6122">
        <ele>1428.18</ele>
        <time>2015-10-15T11:34:57Z</time>
      </trkpt>
      <trkpt lat="44.46549" lon="5.61228">
        <ele>1425.29</ele>
        <time>2015-10-15T11:35:11Z</time>
      </trkpt>
      <trkpt lat="44.46547" lon="5.61235">
        <ele>1421.93</ele>
        <time>2015-10-15T11:35:21Z</time>
      </trkpt>
      <trkpt lat="44.46541" lon="5.61238">
        <ele>1418.56</ele>
        <time>2015-10-15T11:35:30Z</time>
      </trkpt>
      <trkpt lat="44.46545" lon="5.61244">
        <ele>1415.2</ele>
        <time>2015-10-15T11:35:46Z</time>
      </trkpt>
      <trkpt lat="44.46542" lon="5.61255">
        <ele>1413.28</ele>
        <time>2015-10-15T11:36:00Z</time>
      </trkpt>
      <trkpt lat="44.4654" lon="5.6126">
        <ele>1410.39</ele>
        <time>2015-10-15T11:36:09Z</time>
      </trkpt>
      <trkpt lat="44.46543" lon="5.61269">
        <ele>1407.51</ele>
        <time>2015-10-15T11:36:21Z</time>
      </trkpt>
      <trkpt lat="44.46538" lon="5.61273">
        <ele>1404.14</ele>
        <time>2015-10-15T11:36:36Z</time>
      </trkpt>
      <trkpt lat="44.46536" lon="5.61279">
        <ele>1403.18</ele>
        <time>2015-10-15T11:36:51Z</time>
      </trkpt>
      <trkpt lat="44.46536" lon="5.61286">
        <ele>1399.82</ele>
        <time>2015-10-15T11:37:05Z</time>
      </trkpt>
      <trkpt lat="44.46538" lon="5.61287">
        <ele>1398.86</ele>
        <time>2015-10-15T11:37:08Z</time>
      </trkpt>
      <trkpt lat="44.46538" lon="5.61296">
        <ele>1395.49</ele>
        <time>2015-10-15T11:37:22Z</time>
      </trkpt>
      <trkpt lat="44.46531" lon="5.61303">
        <ele>1392.13</ele>
        <time>2015-10-15T11:37:32Z</time>
      </trkpt>
      <trkpt lat="44.4653" lon="5.61303">
        <ele>1391.65</ele>
        <time>2015-10-15T11:37:33Z</time>
      </trkpt>
      <trkpt lat="44.46525" lon="5.61309">
        <ele>1389.72</ele>
        <time>2015-10-15T11:37:49Z</time>
      </trkpt>
      <trkpt lat="44.46527" lon="5.61313">
        <ele>1386.36</ele>
        <time>2015-10-15T11:37:58Z</time>
      </trkpt>
      <trkpt lat="44.46518" lon="5.61318">
        <ele>1385.4</ele>
        <time>2015-10-15T11:38:12Z</time>
      </trkpt>
      <trkpt lat="44.46515" lon="5.61321">
        <ele>1383.96</ele>
        <time>2015-10-15T11:38:25Z</time>
      </trkpt>
      <trkpt lat="44.46505" lon="5.61321">
        <ele>1386.36</ele>
        <time>2015-10-15T11:38:39Z</time>
      </trkpt>
      <trkpt lat="44.46498" lon="5.61317">
        <ele>1387.32</ele>
        <time>2015-10-15T11:38:55Z</time>
      </trkpt>
      <trkpt lat="44.46488" lon="5.61312">
        <ele>1387.32</ele>
        <time>2015-10-15T11:39:10Z</time>
      </trkpt>
      <trkpt lat="44.46485" lon="5.61311">
        <ele>1387.32</ele>
        <time>2015-10-15T11:39:47Z</time>
      </trkpt>
      <trkpt lat="44.46496" lon="5.61314">
        <ele>1386.84</ele>
        <time>2015-10-15T11:40:02Z</time>
      </trkpt>
      <trkpt lat="44.46508" lon="5.61316">
        <ele>1386.36</ele>
        <time>2015-10-15T11:40:18Z</time>
      </trkpt>
      <trkpt lat="44.46515" lon="5.61318">
        <ele>1385.88</ele>
        <time>2015-10-15T11:40:36Z</time>
      </trkpt>
      <trkpt lat="44.46517" lon="5.61318">
        <ele>1387.32</ele>
        <time>2015-10-15T11:41:04Z</time>
      </trkpt>
      <trkpt lat="44.46524" lon="5.61322">
        <ele>1385.4</ele>
        <time>2015-10-15T11:41:21Z</time>
      </trkpt>
      <trkpt lat="44.46524" lon="5.61322">
        <ele>1385.4</ele>
        <time>2015-10-15T11:41:38Z</time>
      </trkpt>
      <trkpt lat="44.46525" lon="5.6132">
        <ele>1384.44</ele>
        <time>2015-10-15T11:41:57Z</time>
      </trkpt>
      <trkpt lat="44.46522" lon="5.61319">
        <ele>1385.4</ele>
        <time>2015-10-15T11:42:18Z</time>
      </trkpt>
      <trkpt lat="44.46527" lon="5.61328">
        <ele>1384.92</ele>
        <time>2015-10-15T11:42:41Z</time>
      </trkpt>
      <trkpt lat="44.46533" lon="5.6134">
        <ele>1383.96</ele>
        <time>2015-10-15T11:42:51Z</time>
      </trkpt>
      <trkpt lat="44.46538" lon="5.61349">
        <ele>1383.47</ele>
        <time>2015-10-15T11:43:01Z</time>
      </trkpt>
      <trkpt lat="44.46546" lon="5.61369">
        <ele>1382.03</ele>
        <time>2015-10-15T11:43:17Z</time>
      </trkpt>
      <trkpt lat="44.46549" lon="5.61378">
        <ele>1381.55</ele>
        <time>2015-10-15T11:43:24Z</time>
      </trkpt>
      <trkpt lat="44.4656" lon="5.61399">
        <ele>1379.15</ele>
        <time>2015-10-15T11:43:41Z</time>
      </trkpt>
      <trkpt lat="44.4656" lon="5.61405">
        <ele>1378.67</ele>
        <time>2015-10-15T11:43:44Z</time>
      </trkpt>
      <trkpt lat="44.4656" lon="5.61413">
        <ele>1378.19</ele>
        <time>2015-10-15T11:43:50Z</time>
      </trkpt>
      <trkpt lat="44.46568" lon="5.6142">
        <ele>1379.15</ele>
        <time>2015-10-15T11:44:06Z</time>
      </trkpt>
      <trkpt lat="44.46566" lon="5.6142">
        <ele>1378.67</ele>
        <time>2015-10-15T11:44:11Z</time>
      </trkpt>
      <trkpt lat="44.46548" lon="5.61413">
        <ele>1377.23</ele>
        <time>2015-10-15T11:44:27Z</time>
      </trkpt>
      <trkpt lat="44.46545" lon="5.61412">
        <ele>1377.23</ele>
        <time>2015-10-15T11:44:31Z</time>
      </trkpt>
      <trkpt lat="44.46535" lon="5.61391">
        <ele>1376.26</ele>
        <time>2015-10-15T11:44:47Z</time>
      </trkpt>
      <trkpt lat="44.46523" lon="5.61369">
        <ele>1374.82</ele>
        <time>2015-10-15T11:45:04Z</time>
      </trkpt>
      <trkpt lat="44.46508" lon="5.61357">
        <ele>1373.38</ele>
        <time>2015-10-15T11:45:19Z</time>
      </trkpt>
      <trkpt lat="44.46493" lon="5.6135">
        <ele>1371.46</ele>
        <time>2015-10-15T11:45:34Z</time>
      </trkpt>
      <trkpt lat="44.46476" lon="5.61346">
        <ele>1370.02</ele>
        <time>2015-10-15T11:45:49Z</time>
      </trkpt>
      <trkpt lat="44.46459" lon="5.61334">
        <ele>1367.61</ele>
        <time>2015-10-15T11:46:05Z</time>
      </trkpt>
      <trkpt lat="44.46444" lon="5.61318">
        <ele>1364.73</ele>
        <time>2015-10-15T11:46:21Z</time>
      </trkpt>
      <trkpt lat="44.46433" lon="5.613">
        <ele>1363.77</ele>
        <time>2015-10-15T11:46:35Z</time>
      </trkpt>
      <trkpt lat="44.46418" lon="5.61295">
        <ele>1361.84</ele>
        <time>2015-10-15T11:46:51Z</time>
      </trkpt>
      <trkpt lat="44.46418" lon="5.61294">
        <ele>1361.36</ele>
        <time>2015-10-15T11:46:52Z</time>
      </trkpt>
      <trkpt lat="44.46398" lon="5.61298">
        <ele>1359.44</ele>
        <time>2015-10-15T11:47:10Z</time>
      </trkpt>
      <trkpt lat="44.4638" lon="5.61304">
        <ele>1357.04</ele>
        <time>2015-10-15T11:47:27Z</time>
      </trkpt>
      <trkpt lat="44.46369" lon="5.61307">
        <ele>1355.12</ele>
        <time>2015-10-15T11:47:37Z</time>
      </trkpt>
      <trkpt lat="44.46344" lon="5.6131">
        <ele>1352.23</ele>
        <time>2015-10-15T11:47:56Z</time>
      </trkpt>
      <trkpt lat="44.46326" lon="5.61316">
        <ele>1350.31</ele>
        <time>2015-10-15T11:48:12Z</time>
      </trkpt>
      <trkpt lat="44.46315" lon="5.61321">
        <ele>1349.35</ele>
        <time>2015-10-15T11:48:21Z</time>
      </trkpt>
      <trkpt lat="44.46295" lon="5.61332">
        <ele>1347.43</ele>
        <time>2015-10-15T11:48:38Z</time>
      </trkpt>
      <trkpt lat="44.46282" lon="5.61343">
        <ele>1346.46</ele>
        <time>2015-10-15T11:48:54Z</time>
      </trkpt>
      <trkpt lat="44.46277" lon="5.61366">
        <ele>1344.54</ele>
        <time>2015-10-15T11:49:11Z</time>
      </trkpt>
      <trkpt lat="44.46279" lon="5.61369">
        <ele>1344.54</ele>
        <time>2015-10-15T11:49:15Z</time>
      </trkpt>
      <trkpt lat="44.46287" lon="5.61364">
        <ele>1344.06</ele>
        <time>2015-10-15T11:49:22Z</time>
      </trkpt>
      <trkpt lat="44.46291" lon="5.61356">
        <ele>1343.1</ele>
        <time>2015-10-15T11:49:29Z</time>
      </trkpt>
      <trkpt lat="44.46295" lon="5.6136">
        <ele>1342.62</ele>
        <time>2015-10-15T11:49:42Z</time>
      </trkpt>
      <trkpt lat="44.46294" lon="5.61364">
        <ele>1342.14</ele>
        <time>2015-10-15T11:50:10Z</time>
      </trkpt>
      <trkpt lat="44.46298" lon="5.61366">
        <ele>1341.66</ele>
        <time>2015-10-15T11:50:31Z</time>
      </trkpt>
      <trkpt lat="44.46305" lon="5.61373">
        <ele>1338.29</ele>
        <time>2015-10-15T11:50:48Z</time>
      </trkpt>
      <trkpt lat="44.46309" lon="5.61375">
        <ele>1336.85</ele>
        <time>2015-10-15T11:50:54Z</time>
      </trkpt>
      <trkpt lat="44.46319" lon="5.61387">
        <ele>1333.01</ele>
        <time>2015-10-15T11:51:08Z</time>
      </trkpt>
      <trkpt lat="44.46325" lon="5.61402">
        <ele>1330.12</ele>
        <time>2015-10-15T11:51:24Z</time>
      </trkpt>
      <trkpt lat="44.46328" lon="5.61418">
        <ele>1327.72</ele>
        <time>2015-10-15T11:51:39Z</time>
      </trkpt>
      <trkpt lat="44.46336" lon="5.61434">
        <ele>1325.31</ele>
        <time>2015-10-15T11:51:55Z</time>
      </trkpt>
      <trkpt lat="44.46342" lon="5.61447">
        <ele>1322.43</ele>
        <time>2015-10-15T11:52:08Z</time>
      </trkpt>
      <trkpt lat="44.46353" lon="5.61467">
        <ele>1319.55</ele>
        <time>2015-10-15T11:52:24Z</time>
      </trkpt>
      <trkpt lat="44.46359" lon="5.61485">
        <ele>1316.18</ele>
        <time>2015-10-15T11:52:41Z</time>
      </trkpt>
      <trkpt lat="44.46361" lon="5.61506">
        <ele>1314.26</ele>
        <time>2015-10-15T11:52:55Z</time>
      </trkpt>
      <trkpt lat="44.46367" lon="5.61524">
        <ele>1310.9</ele>
        <time>2015-10-15T11:53:11Z</time>
      </trkpt>
      <trkpt lat="44.46369" lon="5.61545">
        <ele>1308.01</ele>
        <time>2015-10-15T11:53:27Z</time>
      </trkpt>
      <trkpt lat="44.46371" lon="5.61566">
        <ele>1304.65</ele>
        <time>2015-10-15T11:53:42Z</time>
      </trkpt>
      <trkpt lat="44.46375" lon="5.61589">
        <ele>1301.76</ele>
        <time>2015-10-15T11:53:57Z</time>
      </trkpt>
      <trkpt lat="44.46388" lon="5.61615">
        <ele>1298.88</ele>
        <time>2015-10-15T11:54:15Z</time>
      </trkpt>
      <trkpt lat="44.46395" lon="5.61633">
        <ele>1295.99</ele>
        <time>2015-10-15T11:54:29Z</time>
      </trkpt>
      <trkpt lat="44.464" lon="5.61653">
        <ele>1292.63</ele>
        <time>2015-10-15T11:54:45Z</time>
      </trkpt>
      <trkpt lat="44.46406" lon="5.61669">
        <ele>1290.23</ele>
        <time>2015-10-15T11:55:02Z</time>
      </trkpt>
      <trkpt lat="44.46414" lon="5.61688">
        <ele>1286.86</ele>
        <time>2015-10-15T11:55:19Z</time>
      </trkpt>
      <trkpt lat="44.46419" lon="5.617">
        <ele>1285.42</ele>
        <time>2015-10-15T11:55:34Z</time>
      </trkpt>
      <trkpt lat="44.46427" lon="5.61718">
        <ele>1283.02</ele>
        <time>2015-10-15T11:55:48Z</time>
      </trkpt>
      <trkpt lat="44.4643" lon="5.61735">
        <ele>1279.65</ele>
        <time>2015-10-15T11:56:04Z</time>
      </trkpt>
      <trkpt lat="44.46442" lon="5.6175">
        <ele>1276.77</ele>
        <time>2015-10-15T11:56:17Z</time>
      </trkpt>
      <trkpt lat="44.46454" lon="5.61767">
        <ele>1273.88</ele>
        <time>2015-10-15T11:56:31Z</time>
      </trkpt>
      <trkpt lat="44.46456" lon="5.61768">
        <ele>1273.88</ele>
        <time>2015-10-15T11:56:32Z</time>
      </trkpt>
      <trkpt lat="44.46468" lon="5.61779">
        <ele>1270.52</ele>
        <time>2015-10-15T11:56:47Z</time>
      </trkpt>
      <trkpt lat="44.46475" lon="5.61795">
        <ele>1264.75</ele>
        <time>2015-10-15T11:57:01Z</time>
      </trkpt>
      <trkpt lat="44.46475" lon="5.61796">
        <ele>1270.04</ele>
        <time>2015-10-15T11:57:02Z</time>
      </trkpt>
      <trkpt lat="44.46476" lon="5.61801">
        <ele>1266.67</ele>
        <time>2015-10-15T11:57:05Z</time>
      </trkpt>
      <trkpt lat="44.46481" lon="5.61827">
        <ele>1263.79</ele>
        <time>2015-10-15T11:57:21Z</time>
      </trkpt>
      <trkpt lat="44.46489" lon="5.61851">
        <ele>1262.35</ele>
        <time>2015-10-15T11:57:37Z</time>
      </trkpt>
      <trkpt lat="44.46496" lon="5.6187">
        <ele>1258.98</ele>
        <time>2015-10-15T11:57:51Z</time>
      </trkpt>
      <trkpt lat="44.46499" lon="5.61889">
        <ele>1256.1</ele>
        <time>2015-10-15T11:58:05Z</time>
      </trkpt>
      <trkpt lat="44.46502" lon="5.61908">
        <ele>1253.7</ele>
        <time>2015-10-15T11:58:17Z</time>
      </trkpt>
      <trkpt lat="44.46508" lon="5.61919">
        <ele>1252.25</ele>
        <time>2015-10-15T11:58:32Z</time>
      </trkpt>
      <trkpt lat="44.4651" lon="5.61931">
        <ele>1251.77</ele>
        <time>2015-10-15T11:58:56Z</time>
      </trkpt>
      <trkpt lat="44.4651" lon="5.61926">
        <ele>1251.29</ele>
        <time>2015-10-15T11:59:14Z</time>
      </trkpt>
      <trkpt lat="44.4651" lon="5.61933">
        <ele>1250.81</ele>
        <time>2015-10-15T11:59:37Z</time>
      </trkpt>
      <trkpt lat="44.46513" lon="5.61939">
        <ele>1250.81</ele>
        <time>2015-10-15T11:59:56Z</time>
      </trkpt>
      <trkpt lat="44.46515" lon="5.61936">
        <ele>1250.33</ele>
        <time>2015-10-15T12:00:16Z</time>
      </trkpt>
      <trkpt lat="44.46518" lon="5.61937">
        <ele>1249.85</ele>
        <time>2015-10-15T12:00:41Z</time>
      </trkpt>
      <trkpt lat="44.46515" lon="5.61935">
        <ele>1250.81</ele>
        <time>2015-10-15T12:01:04Z</time>
      </trkpt>
      <trkpt lat="44.46515" lon="5.61938">
        <ele>1251.77</ele>
        <time>2015-10-15T12:01:30Z</time>
      </trkpt>
      <trkpt lat="44.46517" lon="5.6194">
        <ele>1251.77</ele>
        <time>2015-10-15T12:01:53Z</time>
      </trkpt>
      <trkpt lat="44.46516" lon="5.61943">
        <ele>1251.29</ele>
        <time>2015-10-15T12:02:08Z</time>
      </trkpt>
      <trkpt lat="44.46524" lon="5.6195">
        <ele>1250.81</ele>
        <time>2015-10-15T12:02:23Z</time>
      </trkpt>
      <trkpt lat="44.4653" lon="5.61963">
        <ele>1248.41</ele>
        <time>2015-10-15T12:02:36Z</time>
      </trkpt>
      <trkpt lat="44.46536" lon="5.61978">
        <ele>1246.01</ele>
        <time>2015-10-15T12:02:52Z</time>
      </trkpt>
      <trkpt lat="44.46543" lon="5.61997">
        <ele>1244.56</ele>
        <time>2015-10-15T12:03:08Z</time>
      </trkpt>
      <trkpt lat="44.46552" lon="5.62012">
        <ele>1242.64</ele>
        <time>2015-10-15T12:03:23Z</time>
      </trkpt>
      <trkpt lat="44.46554" lon="5.62015">
        <ele>1242.64</ele>
        <time>2015-10-15T12:03:26Z</time>
      </trkpt>
      <trkpt lat="44.46565" lon="5.62029">
        <ele>1239.28</ele>
        <time>2015-10-15T12:03:37Z</time>
      </trkpt>
      <trkpt lat="44.46572" lon="5.62046">
        <ele>1237.83</ele>
        <time>2015-10-15T12:03:50Z</time>
      </trkpt>
      <trkpt lat="44.46583" lon="5.62066">
        <ele>1234.47</ele>
        <time>2015-10-15T12:04:06Z</time>
      </trkpt>
      <trkpt lat="44.46589" lon="5.62079">
        <ele>1231.59</ele>
        <time>2015-10-15T12:04:17Z</time>
      </trkpt>
      <trkpt lat="44.46596" lon="5.62101">
        <ele>1229.18</ele>
        <time>2015-10-15T12:04:34Z</time>
      </trkpt>
      <trkpt lat="44.46605" lon="5.62128">
        <ele>1225.82</ele>
        <time>2015-10-15T12:04:53Z</time>
      </trkpt>
      <trkpt lat="44.46612" lon="5.62152">
        <ele>1222.93</ele>
        <time>2015-10-15T12:05:09Z</time>
      </trkpt>
      <trkpt lat="44.46616" lon="5.62175">
        <ele>1220.53</ele>
        <time>2015-10-15T12:05:26Z</time>
      </trkpt>
      <trkpt lat="44.46618" lon="5.62196">
        <ele>1219.57</ele>
        <time>2015-10-15T12:05:42Z</time>
      </trkpt>
      <trkpt lat="44.46622" lon="5.62221">
        <ele>1218.13</ele>
        <time>2015-10-15T12:05:57Z</time>
      </trkpt>
      <trkpt lat="44.46633" lon="5.62239">
        <ele>1215.72</ele>
        <time>2015-10-15T12:06:12Z</time>
      </trkpt>
      <trkpt lat="44.46643" lon="5.62254">
        <ele>1214.28</ele>
        <time>2015-10-15T12:06:28Z</time>
      </trkpt>
      <trkpt lat="44.46654" lon="5.6227">
        <ele>1213.32</ele>
        <time>2015-10-15T12:06:43Z</time>
      </trkpt>
      <trkpt lat="44.46663" lon="5.62288">
        <ele>1211.88</ele>
        <time>2015-10-15T12:06:59Z</time>
      </trkpt>
      <trkpt lat="44.46671" lon="5.62305">
        <ele>1209</ele>
        <time>2015-10-15T12:07:15Z</time>
      </trkpt>
      <trkpt lat="44.46678" lon="5.62323">
        <ele>1206.11</ele>
        <time>2015-10-15T12:07:30Z</time>
      </trkpt>
      <trkpt lat="44.46687" lon="5.62345">
        <ele>1203.71</ele>
        <time>2015-10-15T12:07:47Z</time>
      </trkpt>
      <trkpt lat="44.46695" lon="5.62366">
        <ele>1201.79</ele>
        <time>2015-10-15T12:08:02Z</time>
      </trkpt>
      <trkpt lat="44.46704" lon="5.62394">
        <ele>1199.86</ele>
        <time>2015-10-15T12:08:19Z</time>
      </trkpt>
      <trkpt lat="44.46705" lon="5.62396">
        <ele>1199.86</ele>
        <time>2015-10-15T12:08:21Z</time>
      </trkpt>
      <trkpt lat="44.46716" lon="5.62412">
        <ele>1198.42</ele>
        <time>2015-10-15T12:08:37Z</time>
      </trkpt>
      <trkpt lat="44.46724" lon="5.62423">
        <ele>1197.46</ele>
        <time>2015-10-15T12:08:51Z</time>
      </trkpt>
      <trkpt lat="44.46733" lon="5.62435">
        <ele>1195.54</ele>
        <time>2015-10-15T12:09:04Z</time>
      </trkpt>
      <trkpt lat="44.4674" lon="5.62447">
        <ele>1193.61</ele>
        <time>2015-10-15T12:09:16Z</time>
      </trkpt>
      <trkpt lat="44.46748" lon="5.62459">
        <ele>1191.21</ele>
        <time>2015-10-15T12:09:28Z</time>
      </trkpt>
      <trkpt lat="44.46765" lon="5.62476">
        <ele>1187.85</ele>
        <time>2015-10-15T12:09:43Z</time>
      </trkpt>
      <trkpt lat="44.46779" lon="5.62491">
        <ele>1185.44</ele>
        <time>2015-10-15T12:09:57Z</time>
      </trkpt>
      <trkpt lat="44.46786" lon="5.62504">
        <ele>1182.08</ele>
        <time>2015-10-15T12:10:10Z</time>
      </trkpt>
      <trkpt lat="44.46793" lon="5.62512">
        <ele>1178.71</ele>
        <time>2015-10-15T12:10:25Z</time>
      </trkpt>
      <trkpt lat="44.46799" lon="5.62515">
        <ele>1175.83</ele>
        <time>2015-10-15T12:10:38Z</time>
      </trkpt>
      <trkpt lat="44.46801" lon="5.62517">
        <ele>1172.47</ele>
        <time>2015-10-15T12:10:48Z</time>
      </trkpt>
      <trkpt lat="44.46807" lon="5.62523">
        <ele>1169.58</ele>
        <time>2015-10-15T12:10:59Z</time>
      </trkpt>
      <trkpt lat="44.46822" lon="5.62532">
        <ele>1166.22</ele>
        <time>2015-10-15T12:11:12Z</time>
      </trkpt>
      <trkpt lat="44.46832" lon="5.62546">
        <ele>1163.33</ele>
        <time>2015-10-15T12:11:26Z</time>
      </trkpt>
      <trkpt lat="44.46842" lon="5.62558">
        <ele>1160.45</ele>
        <time>2015-10-15T12:11:39Z</time>
      </trkpt>
      <trkpt lat="44.46847" lon="5.62569">
        <ele>1159.49</ele>
        <time>2015-10-15T12:11:58Z</time>
      </trkpt>
      <trkpt lat="44.46849" lon="5.62577">
        <ele>1158.53</ele>
        <time>2015-10-15T12:12:22Z</time>
      </trkpt>
      <trkpt lat="44.46856" lon="5.62587">
        <ele>1155.16</ele>
        <time>2015-10-15T12:12:43Z</time>
      </trkpt>
      <trkpt lat="44.46865" lon="5.62596">
        <ele>1152.76</ele>
        <time>2015-10-15T12:12:57Z</time>
      </trkpt>
      <trkpt lat="44.46873" lon="5.62597">
        <ele>1151.32</ele>
        <time>2015-10-15T12:13:04Z</time>
      </trkpt>
      <trkpt lat="44.46884" lon="5.62598">
        <ele>1147.95</ele>
        <time>2015-10-15T12:13:17Z</time>
      </trkpt>
      <trkpt lat="44.46889" lon="5.62597">
        <ele>1146.51</ele>
        <time>2015-10-15T12:13:23Z</time>
      </trkpt>
      <trkpt lat="44.469" lon="5.62589">
        <ele>1143.63</ele>
        <time>2015-10-15T12:13:35Z</time>
      </trkpt>
      <trkpt lat="44.46907" lon="5.62578">
        <ele>1143.63</ele>
        <time>2015-10-15T12:13:46Z</time>
      </trkpt>
      <trkpt lat="44.46916" lon="5.62575">
        <ele>1142.66</ele>
        <time>2015-10-15T12:13:58Z</time>
      </trkpt>
      <trkpt lat="44.46923" lon="5.6258">
        <ele>1141.22</ele>
        <time>2015-10-15T12:14:10Z</time>
      </trkpt>
      <trkpt lat="44.46934" lon="5.62583">
        <ele>1138.82</ele>
        <time>2015-10-15T12:14:25Z</time>
      </trkpt>
      <trkpt lat="44.46952" lon="5.62582">
        <ele>1135.94</ele>
        <time>2015-10-15T12:14:40Z</time>
      </trkpt>
      <trkpt lat="44.46964" lon="5.62587">
        <ele>1133.05</ele>
        <time>2015-10-15T12:14:55Z</time>
      </trkpt>
      <trkpt lat="44.46981" lon="5.62599">
        <ele>1129.69</ele>
        <time>2015-10-15T12:15:10Z</time>
      </trkpt>
      <trkpt lat="44.46984" lon="5.62603">
        <ele>1128.73</ele>
        <time>2015-10-15T12:15:14Z</time>
      </trkpt>
      <trkpt lat="44.46996" lon="5.62616">
        <ele>1126.32</ele>
        <time>2015-10-15T12:15:32Z</time>
      </trkpt>
      <trkpt lat="44.47005" lon="5.62625">
        <ele>1123.44</ele>
        <time>2015-10-15T12:15:49Z</time>
      </trkpt>
      <trkpt lat="44.47012" lon="5.62632">
        <ele>1120.55</ele>
        <time>2015-10-15T12:15:59Z</time>
      </trkpt>
      <trkpt lat="44.47024" lon="5.62644">
        <ele>1117.19</ele>
        <time>2015-10-15T12:16:14Z</time>
      </trkpt>
      <trkpt lat="44.47032" lon="5.62652">
        <ele>1113.82</ele>
        <time>2015-10-15T12:16:28Z</time>
      </trkpt>
      <trkpt lat="44.47037" lon="5.62662">
        <ele>1111.42</ele>
        <time>2015-10-15T12:16:40Z</time>
      </trkpt>
      <trkpt lat="44.47043" lon="5.62669">
        <ele>1108.06</ele>
        <time>2015-10-15T12:16:52Z</time>
      </trkpt>
      <trkpt lat="44.47051" lon="5.62674">
        <ele>1105.17</ele>
        <time>2015-10-15T12:17:05Z</time>
      </trkpt>
      <trkpt lat="44.47065" lon="5.62685">
        <ele>1101.81</ele>
        <time>2015-10-15T12:17:19Z</time>
      </trkpt>
      <trkpt lat="44.47077" lon="5.62693">
        <ele>1098.44</ele>
        <time>2015-10-15T12:17:31Z</time>
      </trkpt>
      <trkpt lat="44.47089" lon="5.62698">
        <ele>1095.08</ele>
        <time>2015-10-15T12:17:44Z</time>
      </trkpt>
      <trkpt lat="44.47098" lon="5.62703">
        <ele>1092.2</ele>
        <time>2015-10-15T12:17:56Z</time>
      </trkpt>
      <trkpt lat="44.47107" lon="5.62708">
        <ele>1088.83</ele>
        <time>2015-10-15T12:18:10Z</time>
      </trkpt>
      <trkpt lat="44.47109" lon="5.62712">
        <ele>1088.83</ele>
        <time>2015-10-15T12:18:28Z</time>
      </trkpt>
      <trkpt lat="44.47113" lon="5.62713">
        <ele>1087.87</ele>
        <time>2015-10-15T12:18:41Z</time>
      </trkpt>
      <trkpt lat="44.47122" lon="5.62721">
        <ele>1084.5</ele>
        <time>2015-10-15T12:18:53Z</time>
      </trkpt>
      <trkpt lat="44.47131" lon="5.62727">
        <ele>1081.62</ele>
        <time>2015-10-15T12:19:07Z</time>
      </trkpt>
      <trkpt lat="44.47137" lon="5.62735">
        <ele>1078.74</ele>
        <time>2015-10-15T12:19:24Z</time>
      </trkpt>
      <trkpt lat="44.47143" lon="5.62743">
        <ele>1075.37</ele>
        <time>2015-10-15T12:19:36Z</time>
      </trkpt>
      <trkpt lat="44.47151" lon="5.62753">
        <ele>1072.49</ele>
        <time>2015-10-15T12:19:48Z</time>
      </trkpt>
      <trkpt lat="44.47159" lon="5.62766">
        <ele>1069.12</ele>
        <time>2015-10-15T12:20:01Z</time>
      </trkpt>
      <trkpt lat="44.47169" lon="5.62778">
        <ele>1066.24</ele>
        <time>2015-10-15T12:20:15Z</time>
      </trkpt>
      <trkpt lat="44.47181" lon="5.62789">
        <ele>1063.84</ele>
        <time>2015-10-15T12:20:30Z</time>
      </trkpt>
      <trkpt lat="44.47188" lon="5.62803">
        <ele>1060.95</ele>
        <time>2015-10-15T12:20:44Z</time>
      </trkpt>
      <trkpt lat="44.47192" lon="5.62819">
        <ele>1057.59</ele>
        <time>2015-10-15T12:20:57Z</time>
      </trkpt>
      <trkpt lat="44.47195" lon="5.62834">
        <ele>1056.15</ele>
        <time>2015-10-15T12:21:11Z</time>
      </trkpt>
      <trkpt lat="44.47191" lon="5.62839">
        <ele>1055.67</ele>
        <time>2015-10-15T12:21:25Z</time>
      </trkpt>
      <trkpt lat="44.47193" lon="5.62841">
        <ele>1055.67</ele>
        <time>2015-10-15T12:21:44Z</time>
      </trkpt>
      <trkpt lat="44.47196" lon="5.62838">
        <ele>1055.67</ele>
        <time>2015-10-15T12:22:04Z</time>
      </trkpt>
      <trkpt lat="44.47196" lon="5.62837">
        <ele>1056.15</ele>
        <time>2015-10-15T12:22:16Z</time>
      </trkpt>
      <trkpt lat="44.47194" lon="5.62835">
        <ele>1055.67</ele>
        <time>2015-10-15T12:22:35Z</time>
      </trkpt>
      <trkpt lat="44.4719" lon="5.6284">
        <ele>1055.18</ele>
        <time>2015-10-15T12:22:53Z</time>
      </trkpt>
      <trkpt lat="44.47188" lon="5.62836">
        <ele>1056.15</ele>
        <time>2015-10-15T12:23:12Z</time>
      </trkpt>
      <trkpt lat="44.4719" lon="5.62833">
        <ele>1057.11</ele>
        <time>2015-10-15T12:23:35Z</time>
      </trkpt>
      <trkpt lat="44.47189" lon="5.62836">
        <ele>1057.11</ele>
        <time>2015-10-15T12:23:55Z</time>
      </trkpt>
      <trkpt lat="44.47191" lon="5.62843">
        <ele>1057.11</ele>
        <time>2015-10-15T12:24:14Z</time>
      </trkpt>
      <trkpt lat="44.47191" lon="5.62835">
        <ele>1056.63</ele>
        <time>2015-10-15T12:24:40Z</time>
      </trkpt>
      <trkpt lat="44.47193" lon="5.62834">
        <ele>1056.63</ele>
        <time>2015-10-15T12:24:58Z</time>
      </trkpt>
      <trkpt lat="44.47194" lon="5.62838">
        <ele>1056.15</ele>
        <time>2015-10-15T12:25:24Z</time>
      </trkpt>
      <trkpt lat="44.47186" lon="5.62841">
        <ele>1056.15</ele>
        <time>2015-10-15T12:25:55Z</time>
      </trkpt>
      <trkpt lat="44.47191" lon="5.6284">
        <ele>1057.11</ele>
        <time>2015-10-15T12:26:25Z</time>
      </trkpt>
      <trkpt lat="44.47195" lon="5.6284">
        <ele>1057.11</ele>
        <time>2015-10-15T12:26:50Z</time>
      </trkpt>
      <trkpt lat="44.47201" lon="5.62833">
        <ele>1057.11</ele>
        <time>2015-10-15T12:27:11Z</time>
      </trkpt>
      <trkpt lat="44.472" lon="5.62836">
        <ele>1057.11</ele>
        <time>2015-10-15T12:27:30Z</time>
      </trkpt>
      <trkpt lat="44.47208" lon="5.62851">
        <ele>1056.63</ele>
        <time>2015-10-15T12:27:47Z</time>
      </trkpt>
      <trkpt lat="44.47217" lon="5.62864">
        <ele>1054.7</ele>
        <time>2015-10-15T12:28:03Z</time>
      </trkpt>
      <trkpt lat="44.47221" lon="5.62872">
        <ele>1054.7</ele>
        <time>2015-10-15T12:28:11Z</time>
      </trkpt>
      <trkpt lat="44.47234" lon="5.62891">
        <ele>1052.3</ele>
        <time>2015-10-15T12:28:28Z</time>
      </trkpt>
      <trkpt lat="44.47249" lon="5.6291">
        <ele>1051.34</ele>
        <time>2015-10-15T12:28:45Z</time>
      </trkpt>
      <trkpt lat="44.47255" lon="5.62939">
        <ele>1049.9</ele>
        <time>2015-10-15T12:29:03Z</time>
      </trkpt>
      <trkpt lat="44.47256" lon="5.62965">
        <ele>1049.42</ele>
        <time>2015-10-15T12:29:19Z</time>
      </trkpt>
      <trkpt lat="44.47262" lon="5.62978">
        <ele>1048.94</ele>
        <time>2015-10-15T12:29:32Z</time>
      </trkpt>
      <trkpt lat="44.47276" lon="5.62991">
        <ele>1047.97</ele>
        <time>2015-10-15T12:29:48Z</time>
      </trkpt>
      <trkpt lat="44.47288" lon="5.6301">
        <ele>1047.49</ele>
        <time>2015-10-15T12:30:04Z</time>
      </trkpt>
      <trkpt lat="44.47295" lon="5.63038">
        <ele>1045.57</ele>
        <time>2015-10-15T12:30:21Z</time>
      </trkpt>
      <trkpt lat="44.47296" lon="5.63043">
        <ele>1045.09</ele>
        <time>2015-10-15T12:30:25Z</time>
      </trkpt>
      <trkpt lat="44.473" lon="5.63074">
        <ele>1044.13</ele>
        <time>2015-10-15T12:30:43Z</time>
      </trkpt>
      <trkpt lat="44.47304" lon="5.63103">
        <ele>1043.65</ele>
        <time>2015-10-15T12:31:01Z</time>
      </trkpt>
      <trkpt lat="44.47308" lon="5.63131">
        <ele>1042.69</ele>
        <time>2015-10-15T12:31:19Z</time>
      </trkpt>
      <trkpt lat="44.47305" lon="5.63146">
        <ele>1042.21</ele>
        <time>2015-10-15T12:31:33Z</time>
      </trkpt>
      <trkpt lat="44.47301" lon="5.63166">
        <ele>1042.21</ele>
        <time>2015-10-15T12:31:48Z</time>
      </trkpt>
      <trkpt lat="44.473" lon="5.6319">
        <ele>1041.25</ele>
        <time>2015-10-15T12:32:03Z</time>
      </trkpt>
      <trkpt lat="44.47301" lon="5.63218">
        <ele>1040.28</ele>
        <time>2015-10-15T12:32:20Z</time>
      </trkpt>
      <trkpt lat="44.47303" lon="5.63229">
        <ele>1040.76</ele>
        <time>2015-10-15T12:32:28Z</time>
      </trkpt>
      <trkpt lat="44.47308" lon="5.63238">
        <ele>1040.28</ele>
        <time>2015-10-15T12:32:34Z</time>
      </trkpt>
      <trkpt lat="44.4732" lon="5.63257">
        <ele>1039.8</ele>
        <time>2015-10-15T12:32:51Z</time>
      </trkpt>
      <trkpt lat="44.47329" lon="5.63264">
        <ele>1039.8</ele>
        <time>2015-10-15T12:33:04Z</time>
      </trkpt>
      <trkpt lat="44.47331" lon="5.63266">
        <ele>1039.8</ele>
        <time>2015-10-15T12:33:18Z</time>
      </trkpt>
      <trkpt lat="44.47332" lon="5.63268">
        <ele>1039.8</ele>
        <time>2015-10-15T12:33:38Z</time>
      </trkpt>
      <trkpt lat="44.47332" lon="5.63267">
        <ele>1039.8</ele>
        <time>2015-10-15T12:33:58Z</time>
      </trkpt>
      <trkpt lat="44.4733" lon="5.63269">
        <ele>1039.32</ele>
        <time>2015-10-15T12:34:22Z</time>
      </trkpt>
      <trkpt lat="44.47334" lon="5.63274">
        <ele>1039.32</ele>
        <time>2015-10-15T12:34:46Z</time>
      </trkpt>
      <trkpt lat="44.47333" lon="5.63273">
        <ele>1038.84</ele>
        <time>2015-10-15T12:34:58Z</time>
      </trkpt>
      <trkpt lat="44.47332" lon="5.63274">
        <ele>1038.36</ele>
        <time>2015-10-15T12:35:18Z</time>
      </trkpt>
      <trkpt lat="44.47332" lon="5.63274">
        <ele>1040.76</ele>
        <time>2015-10-15T12:35:19Z</time>
      </trkpt>
      <trkpt lat="44.47332" lon="5.63274">
        <ele>1039.32</ele>
        <time>2015-10-15T12:35:20Z</time>
      </trkpt>
      <trkpt lat="44.4733" lon="5.63286">
        <ele>1039.8</ele>
        <time>2015-10-15T12:35:44Z</time>
      </trkpt>
      <trkpt lat="44.47333" lon="5.63282">
        <ele>1039.8</ele>
        <time>2015-10-15T12:36:08Z</time>
      </trkpt>
      <trkpt lat="44.47331" lon="5.63275">
        <ele>1039.8</ele>
        <time>2015-10-15T12:36:22Z</time>
      </trkpt>
    </trkseg>
  </trk>
</gpx>